<?xml version="1.0" encoding="UTF-8" standalone="no" ?>
<gpx xmlns="http://www.topografix.com/GPX/1/1" xmlns:xsi="http://www.w3.org/2001/XMLSchema-instance" xsi:schemaLocation="http://www.topografix.com/GPX/1/1 http://www.topografix.com/GPX/1/1/gpx.xsd" version="1.1" creator="VisuGPX - https://www.visugpx.com">
  <metadata>
    <name>Vol Rando Au Cap de Pouy Hourmigué</name>
  </metadata>
  <trk>
    <name><![CDATA[942 cap de Pouy Hourmigué]]></name>
    <extensions>
      <line xmlns="http://www.topografix.com/GPX/gpx_style/0/2">
        <color>ff0000</color>
        <opacity>1.0</opacity>
        <width>2.0</width>
      </line>
    </extensions>
    <trkseg>
      <trkpt lat="42.93914" lon="0.5713">
        <ele>798</ele>
        <time>2018-04-19T05:31:57Z</time>
      </trkpt>
      <trkpt lat="42.93911" lon="0.57123">
        <ele>799</ele>
        <time>2018-04-19T05:32:02Z</time>
      </trkpt>
      <trkpt lat="42.93909" lon="0.57119">
        <ele>798</ele>
        <time>2018-04-19T05:32:06Z</time>
      </trkpt>
      <trkpt lat="42.93909" lon="0.57114">
        <ele>798</ele>
        <time>2018-04-19T05:32:09Z</time>
      </trkpt>
      <trkpt lat="42.93899" lon="0.57109">
        <ele>798</ele>
        <time>2018-04-19T05:32:29Z</time>
      </trkpt>
      <trkpt lat="42.93899" lon="0.57108">
        <ele>798</ele>
        <time>2018-04-19T05:32:34Z</time>
      </trkpt>
      <trkpt lat="42.93868" lon="0.57119">
        <ele>796</ele>
        <time>2018-04-19T05:32:58Z</time>
      </trkpt>
      <trkpt lat="42.93848" lon="0.57122">
        <ele>793</ele>
        <time>2018-04-19T05:33:15Z</time>
      </trkpt>
      <trkpt lat="42.93821" lon="0.57116">
        <ele>790</ele>
        <time>2018-04-19T05:33:35Z</time>
      </trkpt>
      <trkpt lat="42.93805" lon="0.57141">
        <ele>788</ele>
        <time>2018-04-19T05:33:55Z</time>
      </trkpt>
      <trkpt lat="42.93782" lon="0.57158">
        <ele>788</ele>
        <time>2018-04-19T05:34:15Z</time>
      </trkpt>
      <trkpt lat="42.93758" lon="0.5717">
        <ele>787</ele>
        <time>2018-04-19T05:34:35Z</time>
      </trkpt>
      <trkpt lat="42.93746" lon="0.57176">
        <ele>787</ele>
        <time>2018-04-19T05:34:56Z</time>
      </trkpt>
      <trkpt lat="42.93725" lon="0.57186">
        <ele>785</ele>
        <time>2018-04-19T05:35:15Z</time>
      </trkpt>
      <trkpt lat="42.93704" lon="0.57193">
        <ele>784</ele>
        <time>2018-04-19T05:35:29Z</time>
      </trkpt>
      <trkpt lat="42.93702" lon="0.57194">
        <ele>784</ele>
        <time>2018-04-19T05:35:30Z</time>
      </trkpt>
      <trkpt lat="42.93683" lon="0.57206">
        <ele>782</ele>
        <time>2018-04-19T05:35:50Z</time>
      </trkpt>
      <trkpt lat="42.93683" lon="0.57206">
        <ele>782</ele>
        <time>2018-04-19T05:35:51Z</time>
      </trkpt>
      <trkpt lat="42.93679" lon="0.57213">
        <ele>777</ele>
        <time>2018-04-19T05:36:04Z</time>
      </trkpt>
      <trkpt lat="42.9368" lon="0.57212">
        <ele>784</ele>
        <time>2018-04-19T05:36:06Z</time>
      </trkpt>
      <trkpt lat="42.9368" lon="0.57212">
        <ele>772</ele>
        <time>2018-04-19T05:36:07Z</time>
      </trkpt>
      <trkpt lat="42.9368" lon="0.5721">
        <ele>772</ele>
        <time>2018-04-19T05:36:08Z</time>
      </trkpt>
      <trkpt lat="42.93682" lon="0.57205">
        <ele>772</ele>
        <time>2018-04-19T05:36:17Z</time>
      </trkpt>
      <trkpt lat="42.93664" lon="0.57219">
        <ele>772</ele>
        <time>2018-04-19T05:36:38Z</time>
      </trkpt>
      <trkpt lat="42.93648" lon="0.57224">
        <ele>775</ele>
        <time>2018-04-19T05:36:58Z</time>
      </trkpt>
      <trkpt lat="42.93629" lon="0.57223">
        <ele>778</ele>
        <time>2018-04-19T05:37:17Z</time>
      </trkpt>
      <trkpt lat="42.93613" lon="0.57224">
        <ele>780</ele>
        <time>2018-04-19T05:37:36Z</time>
      </trkpt>
      <trkpt lat="42.93598" lon="0.57225">
        <ele>782</ele>
        <time>2018-04-19T05:37:56Z</time>
      </trkpt>
      <trkpt lat="42.93585" lon="0.57219">
        <ele>785</ele>
        <time>2018-04-19T05:38:16Z</time>
      </trkpt>
      <trkpt lat="42.93574" lon="0.57216">
        <ele>788</ele>
        <time>2018-04-19T05:38:37Z</time>
      </trkpt>
      <trkpt lat="42.9357" lon="0.57208">
        <ele>791</ele>
        <time>2018-04-19T05:38:58Z</time>
      </trkpt>
      <trkpt lat="42.93556" lon="0.57204">
        <ele>794</ele>
        <time>2018-04-19T05:39:21Z</time>
      </trkpt>
      <trkpt lat="42.93555" lon="0.57203">
        <ele>795</ele>
        <time>2018-04-19T05:39:24Z</time>
      </trkpt>
      <trkpt lat="42.93547" lon="0.57211">
        <ele>798</ele>
        <time>2018-04-19T05:39:42Z</time>
      </trkpt>
      <trkpt lat="42.93543" lon="0.57227">
        <ele>801</ele>
        <time>2018-04-19T05:40:04Z</time>
      </trkpt>
      <trkpt lat="42.93538" lon="0.57237">
        <ele>804</ele>
        <time>2018-04-19T05:40:27Z</time>
      </trkpt>
      <trkpt lat="42.93531" lon="0.57236">
        <ele>806</ele>
        <time>2018-04-19T05:40:51Z</time>
      </trkpt>
      <trkpt lat="42.93522" lon="0.57236">
        <ele>809</ele>
        <time>2018-04-19T05:41:11Z</time>
      </trkpt>
      <trkpt lat="42.93517" lon="0.57231">
        <ele>811</ele>
        <time>2018-04-19T05:41:27Z</time>
      </trkpt>
      <trkpt lat="42.93506" lon="0.57236">
        <ele>814</ele>
        <time>2018-04-19T05:41:50Z</time>
      </trkpt>
      <trkpt lat="42.93501" lon="0.5724">
        <ele>817</ele>
        <time>2018-04-19T05:42:10Z</time>
      </trkpt>
      <trkpt lat="42.93497" lon="0.57249">
        <ele>820</ele>
        <time>2018-04-19T05:42:34Z</time>
      </trkpt>
      <trkpt lat="42.93498" lon="0.57255">
        <ele>823</ele>
        <time>2018-04-19T05:42:53Z</time>
      </trkpt>
      <trkpt lat="42.93498" lon="0.57266">
        <ele>825</ele>
        <time>2018-04-19T05:43:13Z</time>
      </trkpt>
      <trkpt lat="42.93493" lon="0.57277">
        <ele>827</ele>
        <time>2018-04-19T05:43:29Z</time>
      </trkpt>
      <trkpt lat="42.93492" lon="0.57272">
        <ele>828</ele>
        <time>2018-04-19T05:43:51Z</time>
      </trkpt>
      <trkpt lat="42.9348" lon="0.57277">
        <ele>830</ele>
        <time>2018-04-19T05:44:12Z</time>
      </trkpt>
      <trkpt lat="42.93471" lon="0.57275">
        <ele>834</ele>
        <time>2018-04-19T05:44:33Z</time>
      </trkpt>
      <trkpt lat="42.93464" lon="0.57282">
        <ele>836</ele>
        <time>2018-04-19T05:44:54Z</time>
      </trkpt>
      <trkpt lat="42.93461" lon="0.57288">
        <ele>839</ele>
        <time>2018-04-19T05:45:18Z</time>
      </trkpt>
      <trkpt lat="42.93455" lon="0.57299">
        <ele>842</ele>
        <time>2018-04-19T05:45:34Z</time>
      </trkpt>
      <trkpt lat="42.93448" lon="0.57302">
        <ele>844</ele>
        <time>2018-04-19T05:45:54Z</time>
      </trkpt>
      <trkpt lat="42.9344" lon="0.57301">
        <ele>846</ele>
        <time>2018-04-19T05:46:10Z</time>
      </trkpt>
      <trkpt lat="42.93433" lon="0.57302">
        <ele>849</ele>
        <time>2018-04-19T05:46:34Z</time>
      </trkpt>
      <trkpt lat="42.93429" lon="0.57293">
        <ele>850</ele>
        <time>2018-04-19T05:47:05Z</time>
      </trkpt>
      <trkpt lat="42.93418" lon="0.57305">
        <ele>853</ele>
        <time>2018-04-19T05:47:29Z</time>
      </trkpt>
      <trkpt lat="42.93414" lon="0.57315">
        <ele>855</ele>
        <time>2018-04-19T05:47:48Z</time>
      </trkpt>
      <trkpt lat="42.9341" lon="0.57325">
        <ele>858</ele>
        <time>2018-04-19T05:48:10Z</time>
      </trkpt>
      <trkpt lat="42.93406" lon="0.5733">
        <ele>859</ele>
        <time>2018-04-19T05:48:36Z</time>
      </trkpt>
      <trkpt lat="42.93409" lon="0.57326">
        <ele>860</ele>
        <time>2018-04-19T05:49:21Z</time>
      </trkpt>
      <trkpt lat="42.93401" lon="0.57343">
        <ele>860</ele>
        <time>2018-04-19T05:49:45Z</time>
      </trkpt>
      <trkpt lat="42.93402" lon="0.57352">
        <ele>862</ele>
        <time>2018-04-19T05:50:09Z</time>
      </trkpt>
      <trkpt lat="42.93407" lon="0.57356">
        <ele>866</ele>
        <time>2018-04-19T05:50:29Z</time>
      </trkpt>
      <trkpt lat="42.93404" lon="0.57373">
        <ele>869</ele>
        <time>2018-04-19T05:50:47Z</time>
      </trkpt>
      <trkpt lat="42.93395" lon="0.57388">
        <ele>872</ele>
        <time>2018-04-19T05:51:08Z</time>
      </trkpt>
      <trkpt lat="42.93386" lon="0.57403">
        <ele>874</ele>
        <time>2018-04-19T05:51:28Z</time>
      </trkpt>
      <trkpt lat="42.93377" lon="0.57406">
        <ele>877</ele>
        <time>2018-04-19T05:51:43Z</time>
      </trkpt>
      <trkpt lat="42.93372" lon="0.57396">
        <ele>879</ele>
        <time>2018-04-19T05:52:02Z</time>
      </trkpt>
      <trkpt lat="42.93368" lon="0.57387">
        <ele>883</ele>
        <time>2018-04-19T05:52:20Z</time>
      </trkpt>
      <trkpt lat="42.93364" lon="0.57379">
        <ele>885</ele>
        <time>2018-04-19T05:52:37Z</time>
      </trkpt>
      <trkpt lat="42.93357" lon="0.57374">
        <ele>887</ele>
        <time>2018-04-19T05:52:55Z</time>
      </trkpt>
      <trkpt lat="42.93352" lon="0.57379">
        <ele>890</ele>
        <time>2018-04-19T05:53:18Z</time>
      </trkpt>
      <trkpt lat="42.93343" lon="0.57376">
        <ele>892</ele>
        <time>2018-04-19T05:53:39Z</time>
      </trkpt>
      <trkpt lat="42.93327" lon="0.57371">
        <ele>896</ele>
        <time>2018-04-19T05:54:01Z</time>
      </trkpt>
      <trkpt lat="42.9332" lon="0.57366">
        <ele>898</ele>
        <time>2018-04-19T05:54:20Z</time>
      </trkpt>
      <trkpt lat="42.93309" lon="0.57359">
        <ele>900</ele>
        <time>2018-04-19T05:54:40Z</time>
      </trkpt>
      <trkpt lat="42.93297" lon="0.57356">
        <ele>903</ele>
        <time>2018-04-19T05:55:02Z</time>
      </trkpt>
      <trkpt lat="42.9329" lon="0.57356">
        <ele>906</ele>
        <time>2018-04-19T05:55:25Z</time>
      </trkpt>
      <trkpt lat="42.93276" lon="0.57359">
        <ele>908</ele>
        <time>2018-04-19T05:55:44Z</time>
      </trkpt>
      <trkpt lat="42.93273" lon="0.57353">
        <ele>908</ele>
        <time>2018-04-19T05:56:02Z</time>
      </trkpt>
      <trkpt lat="42.93267" lon="0.57351">
        <ele>909</ele>
        <time>2018-04-19T05:56:37Z</time>
      </trkpt>
      <trkpt lat="42.93264" lon="0.57354">
        <ele>909</ele>
        <time>2018-04-19T05:57:08Z</time>
      </trkpt>
      <trkpt lat="42.93266" lon="0.57351">
        <ele>909</ele>
        <time>2018-04-19T05:57:46Z</time>
      </trkpt>
      <trkpt lat="42.93263" lon="0.57357">
        <ele>909</ele>
        <time>2018-04-19T05:58:23Z</time>
      </trkpt>
      <trkpt lat="42.93267" lon="0.57356">
        <ele>910</ele>
        <time>2018-04-19T05:59:02Z</time>
      </trkpt>
      <trkpt lat="42.93264" lon="0.57353">
        <ele>910</ele>
        <time>2018-04-19T05:59:53Z</time>
      </trkpt>
      <trkpt lat="42.93263" lon="0.57352">
        <ele>910</ele>
        <time>2018-04-19T06:00:35Z</time>
      </trkpt>
      <trkpt lat="42.93267" lon="0.5736">
        <ele>911</ele>
        <time>2018-04-19T06:01:21Z</time>
      </trkpt>
      <trkpt lat="42.93259" lon="0.57365">
        <ele>910</ele>
        <time>2018-04-19T06:01:37Z</time>
      </trkpt>
      <trkpt lat="42.93238" lon="0.57369">
        <ele>910</ele>
        <time>2018-04-19T06:01:56Z</time>
      </trkpt>
      <trkpt lat="42.93224" lon="0.57379">
        <ele>911</ele>
        <time>2018-04-19T06:02:13Z</time>
      </trkpt>
      <trkpt lat="42.93221" lon="0.57383">
        <ele>911</ele>
        <time>2018-04-19T06:02:16Z</time>
      </trkpt>
      <trkpt lat="42.93217" lon="0.5739">
        <ele>912</ele>
        <time>2018-04-19T06:02:21Z</time>
      </trkpt>
      <trkpt lat="42.93214" lon="0.57394">
        <ele>911</ele>
        <time>2018-04-19T06:02:26Z</time>
      </trkpt>
      <trkpt lat="42.9321" lon="0.57401">
        <ele>912</ele>
        <time>2018-04-19T06:02:32Z</time>
      </trkpt>
      <trkpt lat="42.93204" lon="0.57423">
        <ele>914</ele>
        <time>2018-04-19T06:02:54Z</time>
      </trkpt>
      <trkpt lat="42.93194" lon="0.57427">
        <ele>916</ele>
        <time>2018-04-19T06:03:20Z</time>
      </trkpt>
      <trkpt lat="42.93193" lon="0.57425">
        <ele>920</ele>
        <time>2018-04-19T06:03:32Z</time>
      </trkpt>
      <trkpt lat="42.93192" lon="0.57451">
        <ele>921</ele>
        <time>2018-04-19T06:03:54Z</time>
      </trkpt>
      <trkpt lat="42.93182" lon="0.57467">
        <ele>923</ele>
        <time>2018-04-19T06:04:16Z</time>
      </trkpt>
      <trkpt lat="42.93176" lon="0.57481">
        <ele>926</ele>
        <time>2018-04-19T06:04:40Z</time>
      </trkpt>
      <trkpt lat="42.93169" lon="0.57491">
        <ele>930</ele>
        <time>2018-04-19T06:05:03Z</time>
      </trkpt>
      <trkpt lat="42.93166" lon="0.57495">
        <ele>931</ele>
        <time>2018-04-19T06:05:23Z</time>
      </trkpt>
      <trkpt lat="42.93175" lon="0.57509">
        <ele>934</ele>
        <time>2018-04-19T06:05:44Z</time>
      </trkpt>
      <trkpt lat="42.93177" lon="0.57517">
        <ele>937</ele>
        <time>2018-04-19T06:06:06Z</time>
      </trkpt>
      <trkpt lat="42.93177" lon="0.57523">
        <ele>939</ele>
        <time>2018-04-19T06:06:25Z</time>
      </trkpt>
      <trkpt lat="42.93187" lon="0.57528">
        <ele>941</ele>
        <time>2018-04-19T06:06:43Z</time>
      </trkpt>
      <trkpt lat="42.93194" lon="0.57537">
        <ele>943</ele>
        <time>2018-04-19T06:07:04Z</time>
      </trkpt>
      <trkpt lat="42.93188" lon="0.5755">
        <ele>946</ele>
        <time>2018-04-19T06:07:26Z</time>
      </trkpt>
      <trkpt lat="42.9318" lon="0.57559">
        <ele>948</ele>
        <time>2018-04-19T06:07:47Z</time>
      </trkpt>
      <trkpt lat="42.9317" lon="0.57569">
        <ele>951</ele>
        <time>2018-04-19T06:08:07Z</time>
      </trkpt>
      <trkpt lat="42.93158" lon="0.57575">
        <ele>952</ele>
        <time>2018-04-19T06:08:29Z</time>
      </trkpt>
      <trkpt lat="42.93143" lon="0.57578">
        <ele>954</ele>
        <time>2018-04-19T06:08:49Z</time>
      </trkpt>
      <trkpt lat="42.93142" lon="0.57591">
        <ele>957</ele>
        <time>2018-04-19T06:09:08Z</time>
      </trkpt>
      <trkpt lat="42.93138" lon="0.57603">
        <ele>959</ele>
        <time>2018-04-19T06:09:30Z</time>
      </trkpt>
      <trkpt lat="42.93137" lon="0.5761">
        <ele>959</ele>
        <time>2018-04-19T06:09:41Z</time>
      </trkpt>
      <trkpt lat="42.93123" lon="0.57626">
        <ele>961</ele>
        <time>2018-04-19T06:10:02Z</time>
      </trkpt>
      <trkpt lat="42.93121" lon="0.57637">
        <ele>964</ele>
        <time>2018-04-19T06:10:20Z</time>
      </trkpt>
      <trkpt lat="42.93121" lon="0.57631">
        <ele>964</ele>
        <time>2018-04-19T06:10:44Z</time>
      </trkpt>
      <trkpt lat="42.93115" lon="0.57627">
        <ele>968</ele>
        <time>2018-04-19T06:11:06Z</time>
      </trkpt>
      <trkpt lat="42.93098" lon="0.57644">
        <ele>969</ele>
        <time>2018-04-19T06:11:27Z</time>
      </trkpt>
      <trkpt lat="42.93086" lon="0.57655">
        <ele>972</ele>
        <time>2018-04-19T06:11:46Z</time>
      </trkpt>
      <trkpt lat="42.93082" lon="0.57666">
        <ele>975</ele>
        <time>2018-04-19T06:12:05Z</time>
      </trkpt>
      <trkpt lat="42.93075" lon="0.57683">
        <ele>977</ele>
        <time>2018-04-19T06:12:25Z</time>
      </trkpt>
      <trkpt lat="42.93074" lon="0.57696">
        <ele>980</ele>
        <time>2018-04-19T06:12:47Z</time>
      </trkpt>
      <trkpt lat="42.93071" lon="0.57707">
        <ele>982</ele>
        <time>2018-04-19T06:13:05Z</time>
      </trkpt>
      <trkpt lat="42.93056" lon="0.5772">
        <ele>984</ele>
        <time>2018-04-19T06:13:25Z</time>
      </trkpt>
      <trkpt lat="42.93045" lon="0.57734">
        <ele>986</ele>
        <time>2018-04-19T06:13:47Z</time>
      </trkpt>
      <trkpt lat="42.9304" lon="0.57725">
        <ele>987</ele>
        <time>2018-04-19T06:14:15Z</time>
      </trkpt>
      <trkpt lat="42.9303" lon="0.57742">
        <ele>991</ele>
        <time>2018-04-19T06:14:36Z</time>
      </trkpt>
      <trkpt lat="42.9303" lon="0.57742">
        <ele>991</ele>
        <time>2018-04-19T06:14:37Z</time>
      </trkpt>
      <trkpt lat="42.93019" lon="0.57739">
        <ele>994</ele>
        <time>2018-04-19T06:14:58Z</time>
      </trkpt>
      <trkpt lat="42.93009" lon="0.5774">
        <ele>997</ele>
        <time>2018-04-19T06:15:20Z</time>
      </trkpt>
      <trkpt lat="42.92998" lon="0.57739">
        <ele>1000</ele>
        <time>2018-04-19T06:15:41Z</time>
      </trkpt>
      <trkpt lat="42.92989" lon="0.5774">
        <ele>1003</ele>
        <time>2018-04-19T06:16:01Z</time>
      </trkpt>
      <trkpt lat="42.92982" lon="0.57749">
        <ele>1006</ele>
        <time>2018-04-19T06:16:18Z</time>
      </trkpt>
      <trkpt lat="42.92981" lon="0.57754">
        <ele>1007</ele>
        <time>2018-04-19T06:16:37Z</time>
      </trkpt>
      <trkpt lat="42.92981" lon="0.57762">
        <ele>1009</ele>
        <time>2018-04-19T06:16:56Z</time>
      </trkpt>
      <trkpt lat="42.92977" lon="0.57768">
        <ele>1011</ele>
        <time>2018-04-19T06:17:13Z</time>
      </trkpt>
      <trkpt lat="42.92981" lon="0.5778">
        <ele>1014</ele>
        <time>2018-04-19T06:17:33Z</time>
      </trkpt>
      <trkpt lat="42.92988" lon="0.57787">
        <ele>1017</ele>
        <time>2018-04-19T06:17:51Z</time>
      </trkpt>
      <trkpt lat="42.92992" lon="0.57794">
        <ele>1019</ele>
        <time>2018-04-19T06:18:10Z</time>
      </trkpt>
      <trkpt lat="42.92988" lon="0.57788">
        <ele>1022</ele>
        <time>2018-04-19T06:18:29Z</time>
      </trkpt>
      <trkpt lat="42.92971" lon="0.57785">
        <ele>1025</ele>
        <time>2018-04-19T06:18:50Z</time>
      </trkpt>
      <trkpt lat="42.92961" lon="0.57785">
        <ele>1027</ele>
        <time>2018-04-19T06:19:11Z</time>
      </trkpt>
      <trkpt lat="42.92957" lon="0.57785">
        <ele>1030</ele>
        <time>2018-04-19T06:19:28Z</time>
      </trkpt>
      <trkpt lat="42.92948" lon="0.57789">
        <ele>1032</ele>
        <time>2018-04-19T06:19:45Z</time>
      </trkpt>
      <trkpt lat="42.92937" lon="0.57789">
        <ele>1034</ele>
        <time>2018-04-19T06:20:01Z</time>
      </trkpt>
      <trkpt lat="42.92927" lon="0.57786">
        <ele>1037</ele>
        <time>2018-04-19T06:20:22Z</time>
      </trkpt>
      <trkpt lat="42.9292" lon="0.57789">
        <ele>1039</ele>
        <time>2018-04-19T06:20:40Z</time>
      </trkpt>
      <trkpt lat="42.92914" lon="0.57786">
        <ele>1042</ele>
        <time>2018-04-19T06:21:00Z</time>
      </trkpt>
      <trkpt lat="42.92909" lon="0.5778">
        <ele>1044</ele>
        <time>2018-04-19T06:21:19Z</time>
      </trkpt>
      <trkpt lat="42.92909" lon="0.57774">
        <ele>1044</ele>
        <time>2018-04-19T06:21:36Z</time>
      </trkpt>
      <trkpt lat="42.92901" lon="0.5777">
        <ele>1047</ele>
        <time>2018-04-19T06:21:58Z</time>
      </trkpt>
      <trkpt lat="42.92886" lon="0.57775">
        <ele>1049</ele>
        <time>2018-04-19T06:22:17Z</time>
      </trkpt>
      <trkpt lat="42.92877" lon="0.57773">
        <ele>1052</ele>
        <time>2018-04-19T06:22:37Z</time>
      </trkpt>
      <trkpt lat="42.92869" lon="0.57776">
        <ele>1056</ele>
        <time>2018-04-19T06:22:58Z</time>
      </trkpt>
      <trkpt lat="42.92862" lon="0.57785">
        <ele>1058</ele>
        <time>2018-04-19T06:23:18Z</time>
      </trkpt>
      <trkpt lat="42.92862" lon="0.57792">
        <ele>1061</ele>
        <time>2018-04-19T06:23:40Z</time>
      </trkpt>
      <trkpt lat="42.92866" lon="0.57804">
        <ele>1064</ele>
        <time>2018-04-19T06:24:02Z</time>
      </trkpt>
      <trkpt lat="42.92868" lon="0.57814">
        <ele>1067</ele>
        <time>2018-04-19T06:24:20Z</time>
      </trkpt>
      <trkpt lat="42.92872" lon="0.57825">
        <ele>1069</ele>
        <time>2018-04-19T06:24:36Z</time>
      </trkpt>
      <trkpt lat="42.92874" lon="0.57826">
        <ele>1070</ele>
        <time>2018-04-19T06:25:05Z</time>
      </trkpt>
      <trkpt lat="42.92877" lon="0.57841">
        <ele>1073</ele>
        <time>2018-04-19T06:25:25Z</time>
      </trkpt>
      <trkpt lat="42.9288" lon="0.57852">
        <ele>1076</ele>
        <time>2018-04-19T06:25:45Z</time>
      </trkpt>
      <trkpt lat="42.92886" lon="0.57863">
        <ele>1079</ele>
        <time>2018-04-19T06:26:01Z</time>
      </trkpt>
      <trkpt lat="42.92891" lon="0.57873">
        <ele>1081</ele>
        <time>2018-04-19T06:26:19Z</time>
      </trkpt>
      <trkpt lat="42.92885" lon="0.57876">
        <ele>1083</ele>
        <time>2018-04-19T06:26:36Z</time>
      </trkpt>
      <trkpt lat="42.92879" lon="0.57885">
        <ele>1084</ele>
        <time>2018-04-19T06:27:02Z</time>
      </trkpt>
      <trkpt lat="42.92872" lon="0.57887">
        <ele>1087</ele>
        <time>2018-04-19T06:27:21Z</time>
      </trkpt>
      <trkpt lat="42.92865" lon="0.57897">
        <ele>1090</ele>
        <time>2018-04-19T06:27:44Z</time>
      </trkpt>
      <trkpt lat="42.92865" lon="0.57898">
        <ele>1088</ele>
        <time>2018-04-19T06:27:51Z</time>
      </trkpt>
      <trkpt lat="42.92865" lon="0.57903">
        <ele>1090</ele>
        <time>2018-04-19T06:27:59Z</time>
      </trkpt>
      <trkpt lat="42.92858" lon="0.5792">
        <ele>1094</ele>
        <time>2018-04-19T06:28:19Z</time>
      </trkpt>
      <trkpt lat="42.92854" lon="0.57933">
        <ele>1095</ele>
        <time>2018-04-19T06:28:35Z</time>
      </trkpt>
      <trkpt lat="42.92852" lon="0.57948">
        <ele>1098</ele>
        <time>2018-04-19T06:28:55Z</time>
      </trkpt>
      <trkpt lat="42.92852" lon="0.57957">
        <ele>1100</ele>
        <time>2018-04-19T06:29:13Z</time>
      </trkpt>
      <trkpt lat="42.92849" lon="0.57968">
        <ele>1103</ele>
        <time>2018-04-19T06:29:32Z</time>
      </trkpt>
      <trkpt lat="42.92845" lon="0.57977">
        <ele>1106</ele>
        <time>2018-04-19T06:29:53Z</time>
      </trkpt>
      <trkpt lat="42.92845" lon="0.57969">
        <ele>1106</ele>
        <time>2018-04-19T06:30:26Z</time>
      </trkpt>
      <trkpt lat="42.92836" lon="0.57993">
        <ele>1109</ele>
        <time>2018-04-19T06:30:44Z</time>
      </trkpt>
      <trkpt lat="42.92832" lon="0.58004">
        <ele>1112</ele>
        <time>2018-04-19T06:31:02Z</time>
      </trkpt>
      <trkpt lat="42.92829" lon="0.58022">
        <ele>1115</ele>
        <time>2018-04-19T06:31:24Z</time>
      </trkpt>
      <trkpt lat="42.92827" lon="0.58024">
        <ele>1114</ele>
        <time>2018-04-19T06:31:43Z</time>
      </trkpt>
      <trkpt lat="42.9283" lon="0.58018">
        <ele>1115</ele>
        <time>2018-04-19T06:31:45Z</time>
      </trkpt>
      <trkpt lat="42.9283" lon="0.58018">
        <ele>1115</ele>
        <time>2018-04-19T06:32:27Z</time>
      </trkpt>
      <trkpt lat="42.92828" lon="0.58005">
        <ele>1119</ele>
        <time>2018-04-19T06:33:02Z</time>
      </trkpt>
      <trkpt lat="42.92831" lon="0.58011">
        <ele>1116</ele>
        <time>2018-04-19T06:33:04Z</time>
      </trkpt>
      <trkpt lat="42.92829" lon="0.58025">
        <ele>1116</ele>
        <time>2018-04-19T06:33:36Z</time>
      </trkpt>
      <trkpt lat="42.92828" lon="0.58031">
        <ele>1119</ele>
        <time>2018-04-19T06:34:06Z</time>
      </trkpt>
      <trkpt lat="42.92826" lon="0.58032">
        <ele>1120</ele>
        <time>2018-04-19T06:34:08Z</time>
      </trkpt>
      <trkpt lat="42.9282" lon="0.58055">
        <ele>1122</ele>
        <time>2018-04-19T06:34:27Z</time>
      </trkpt>
      <trkpt lat="42.92808" lon="0.58074">
        <ele>1125</ele>
        <time>2018-04-19T06:34:48Z</time>
      </trkpt>
      <trkpt lat="42.92804" lon="0.58083">
        <ele>1127</ele>
        <time>2018-04-19T06:35:07Z</time>
      </trkpt>
      <trkpt lat="42.92792" lon="0.58084">
        <ele>1131</ele>
        <time>2018-04-19T06:35:28Z</time>
      </trkpt>
      <trkpt lat="42.92791" lon="0.58085">
        <ele>1131</ele>
        <time>2018-04-19T06:35:31Z</time>
      </trkpt>
      <trkpt lat="42.92782" lon="0.58091">
        <ele>1134</ele>
        <time>2018-04-19T06:35:49Z</time>
      </trkpt>
      <trkpt lat="42.9277" lon="0.58091">
        <ele>1136</ele>
        <time>2018-04-19T06:36:08Z</time>
      </trkpt>
      <trkpt lat="42.92754" lon="0.58097">
        <ele>1139</ele>
        <time>2018-04-19T06:36:30Z</time>
      </trkpt>
      <trkpt lat="42.92746" lon="0.58098">
        <ele>1142</ele>
        <time>2018-04-19T06:36:49Z</time>
      </trkpt>
      <trkpt lat="42.92734" lon="0.58102">
        <ele>1145</ele>
        <time>2018-04-19T06:37:13Z</time>
      </trkpt>
      <trkpt lat="42.92722" lon="0.58114">
        <ele>1148</ele>
        <time>2018-04-19T06:37:33Z</time>
      </trkpt>
      <trkpt lat="42.92715" lon="0.58123">
        <ele>1150</ele>
        <time>2018-04-19T06:37:54Z</time>
      </trkpt>
      <trkpt lat="42.92694" lon="0.58149">
        <ele>1152</ele>
        <time>2018-04-19T06:38:18Z</time>
      </trkpt>
      <trkpt lat="42.92688" lon="0.58161">
        <ele>1154</ele>
        <time>2018-04-19T06:38:35Z</time>
      </trkpt>
      <trkpt lat="42.92681" lon="0.58173">
        <ele>1157</ele>
        <time>2018-04-19T06:38:59Z</time>
      </trkpt>
      <trkpt lat="42.92672" lon="0.58184">
        <ele>1159</ele>
        <time>2018-04-19T06:39:21Z</time>
      </trkpt>
      <trkpt lat="42.92666" lon="0.58195">
        <ele>1161</ele>
        <time>2018-04-19T06:39:42Z</time>
      </trkpt>
      <trkpt lat="42.9266" lon="0.58207">
        <ele>1164</ele>
        <time>2018-04-19T06:40:02Z</time>
      </trkpt>
      <trkpt lat="42.92658" lon="0.58215">
        <ele>1167</ele>
        <time>2018-04-19T06:40:17Z</time>
      </trkpt>
      <trkpt lat="42.92655" lon="0.58229">
        <ele>1168</ele>
        <time>2018-04-19T06:40:33Z</time>
      </trkpt>
      <trkpt lat="42.92656" lon="0.58229">
        <ele>1167</ele>
        <time>2018-04-19T06:40:41Z</time>
      </trkpt>
      <trkpt lat="42.92663" lon="0.58232">
        <ele>1168</ele>
        <time>2018-04-19T06:40:59Z</time>
      </trkpt>
      <trkpt lat="42.92661" lon="0.58235">
        <ele>1167</ele>
        <time>2018-04-19T06:41:10Z</time>
      </trkpt>
      <trkpt lat="42.92659" lon="0.58231">
        <ele>1168</ele>
        <time>2018-04-19T06:41:14Z</time>
      </trkpt>
      <trkpt lat="42.92656" lon="0.58226">
        <ele>1168</ele>
        <time>2018-04-19T06:41:18Z</time>
      </trkpt>
      <trkpt lat="42.92655" lon="0.58222">
        <ele>1169</ele>
        <time>2018-04-19T06:41:20Z</time>
      </trkpt>
      <trkpt lat="42.9265" lon="0.58215">
        <ele>1169</ele>
        <time>2018-04-19T06:41:26Z</time>
      </trkpt>
      <trkpt lat="42.92639" lon="0.5821">
        <ele>1169</ele>
        <time>2018-04-19T06:41:39Z</time>
      </trkpt>
      <trkpt lat="42.92627" lon="0.5819">
        <ele>1170</ele>
        <time>2018-04-19T06:41:54Z</time>
      </trkpt>
      <trkpt lat="42.92619" lon="0.58179">
        <ele>1171</ele>
        <time>2018-04-19T06:42:01Z</time>
      </trkpt>
      <trkpt lat="42.92617" lon="0.58178">
        <ele>1171</ele>
        <time>2018-04-19T06:42:02Z</time>
      </trkpt>
      <trkpt lat="42.92613" lon="0.58173">
        <ele>1171</ele>
        <time>2018-04-19T06:42:10Z</time>
      </trkpt>
      <trkpt lat="42.9261" lon="0.58164">
        <ele>1172</ele>
        <time>2018-04-19T06:42:15Z</time>
      </trkpt>
      <trkpt lat="42.9261" lon="0.58153">
        <ele>1173</ele>
        <time>2018-04-19T06:42:23Z</time>
      </trkpt>
      <trkpt lat="42.92611" lon="0.58151">
        <ele>1173</ele>
        <time>2018-04-19T06:42:24Z</time>
      </trkpt>
      <trkpt lat="42.9261" lon="0.58121">
        <ele>1174</ele>
        <time>2018-04-19T06:42:41Z</time>
      </trkpt>
      <trkpt lat="42.92612" lon="0.58084">
        <ele>1176</ele>
        <time>2018-04-19T06:43:01Z</time>
      </trkpt>
      <trkpt lat="42.92618" lon="0.58076">
        <ele>1176</ele>
        <time>2018-04-19T06:43:21Z</time>
      </trkpt>
      <trkpt lat="42.92618" lon="0.58065">
        <ele>1180</ele>
        <time>2018-04-19T06:43:27Z</time>
      </trkpt>
      <trkpt lat="42.92617" lon="0.58063">
        <ele>1178</ele>
        <time>2018-04-19T06:43:28Z</time>
      </trkpt>
      <trkpt lat="42.92617" lon="0.5806">
        <ele>1178</ele>
        <time>2018-04-19T06:43:29Z</time>
      </trkpt>
      <trkpt lat="42.92612" lon="0.58048">
        <ele>1179</ele>
        <time>2018-04-19T06:43:40Z</time>
      </trkpt>
      <trkpt lat="42.92593" lon="0.58011">
        <ele>1180</ele>
        <time>2018-04-19T06:43:59Z</time>
      </trkpt>
      <trkpt lat="42.9259" lon="0.58009">
        <ele>1180</ele>
        <time>2018-04-19T06:44:17Z</time>
      </trkpt>
      <trkpt lat="42.92588" lon="0.57995">
        <ele>1180</ele>
        <time>2018-04-19T06:44:35Z</time>
      </trkpt>
      <trkpt lat="42.92587" lon="0.57993">
        <ele>1180</ele>
        <time>2018-04-19T06:44:36Z</time>
      </trkpt>
      <trkpt lat="42.92584" lon="0.5797">
        <ele>1181</ele>
        <time>2018-04-19T06:44:51Z</time>
      </trkpt>
      <trkpt lat="42.92565" lon="0.57943">
        <ele>1182</ele>
        <time>2018-04-19T06:45:11Z</time>
      </trkpt>
      <trkpt lat="42.92565" lon="0.57942">
        <ele>1182</ele>
        <time>2018-04-19T06:45:12Z</time>
      </trkpt>
      <trkpt lat="42.92561" lon="0.57935">
        <ele>1184</ele>
        <time>2018-04-19T06:45:28Z</time>
      </trkpt>
      <trkpt lat="42.9256" lon="0.57934">
        <ele>1183</ele>
        <time>2018-04-19T06:45:29Z</time>
      </trkpt>
      <trkpt lat="42.92536" lon="0.57915">
        <ele>1182</ele>
        <time>2018-04-19T06:45:49Z</time>
      </trkpt>
      <trkpt lat="42.92508" lon="0.57891">
        <ele>1183</ele>
        <time>2018-04-19T06:46:13Z</time>
      </trkpt>
      <trkpt lat="42.92484" lon="0.57863">
        <ele>1183</ele>
        <time>2018-04-19T06:46:43Z</time>
      </trkpt>
      <trkpt lat="42.92475" lon="0.57856">
        <ele>1183</ele>
        <time>2018-04-19T06:46:49Z</time>
      </trkpt>
      <trkpt lat="42.92474" lon="0.57855">
        <ele>1183</ele>
        <time>2018-04-19T06:46:50Z</time>
      </trkpt>
      <trkpt lat="42.92445" lon="0.57829">
        <ele>1183</ele>
        <time>2018-04-19T06:47:12Z</time>
      </trkpt>
      <trkpt lat="42.92443" lon="0.57829">
        <ele>1183</ele>
        <time>2018-04-19T06:47:13Z</time>
      </trkpt>
      <trkpt lat="42.92443" lon="0.57828">
        <ele>1183</ele>
        <time>2018-04-19T06:47:14Z</time>
      </trkpt>
      <trkpt lat="42.92442" lon="0.57828">
        <ele>1183</ele>
        <time>2018-04-19T06:47:15Z</time>
      </trkpt>
      <trkpt lat="42.92441" lon="0.57827">
        <ele>1183</ele>
        <time>2018-04-19T06:47:16Z</time>
      </trkpt>
      <trkpt lat="42.92423" lon="0.57823">
        <ele>1183</ele>
        <time>2018-04-19T06:47:35Z</time>
      </trkpt>
      <trkpt lat="42.92421" lon="0.57822">
        <ele>1183</ele>
        <time>2018-04-19T06:47:36Z</time>
      </trkpt>
      <trkpt lat="42.92404" lon="0.57819">
        <ele>1183</ele>
        <time>2018-04-19T06:47:57Z</time>
      </trkpt>
      <trkpt lat="42.92404" lon="0.57823">
        <ele>1184</ele>
        <time>2018-04-19T06:48:10Z</time>
      </trkpt>
      <trkpt lat="42.92393" lon="0.57822">
        <ele>1184</ele>
        <time>2018-04-19T06:48:19Z</time>
      </trkpt>
      <trkpt lat="42.92369" lon="0.57832">
        <ele>1183</ele>
        <time>2018-04-19T06:48:38Z</time>
      </trkpt>
      <trkpt lat="42.9234" lon="0.57848">
        <ele>1184</ele>
        <time>2018-04-19T06:48:58Z</time>
      </trkpt>
      <trkpt lat="42.92317" lon="0.57854">
        <ele>1184</ele>
        <time>2018-04-19T06:49:20Z</time>
      </trkpt>
      <trkpt lat="42.92306" lon="0.57852">
        <ele>1184</ele>
        <time>2018-04-19T06:49:35Z</time>
      </trkpt>
      <trkpt lat="42.92304" lon="0.57852">
        <ele>1184</ele>
        <time>2018-04-19T06:49:36Z</time>
      </trkpt>
      <trkpt lat="42.92272" lon="0.5784">
        <ele>1184</ele>
        <time>2018-04-19T06:49:53Z</time>
      </trkpt>
      <trkpt lat="42.92245" lon="0.57822">
        <ele>1183</ele>
        <time>2018-04-19T06:50:12Z</time>
      </trkpt>
      <trkpt lat="42.92233" lon="0.57808">
        <ele>1184</ele>
        <time>2018-04-19T06:50:21Z</time>
      </trkpt>
      <trkpt lat="42.9222" lon="0.57806">
        <ele>1184</ele>
        <time>2018-04-19T06:50:37Z</time>
      </trkpt>
      <trkpt lat="42.92217" lon="0.57807">
        <ele>1184</ele>
        <time>2018-04-19T06:50:40Z</time>
      </trkpt>
      <trkpt lat="42.92192" lon="0.57801">
        <ele>1185</ele>
        <time>2018-04-19T06:50:59Z</time>
      </trkpt>
      <trkpt lat="42.92178" lon="0.57795">
        <ele>1187</ele>
        <time>2018-04-19T06:51:15Z</time>
      </trkpt>
      <trkpt lat="42.92171" lon="0.57797">
        <ele>1188</ele>
        <time>2018-04-19T06:51:23Z</time>
      </trkpt>
      <trkpt lat="42.92144" lon="0.578">
        <ele>1190</ele>
        <time>2018-04-19T06:51:44Z</time>
      </trkpt>
      <trkpt lat="42.92124" lon="0.578">
        <ele>1192</ele>
        <time>2018-04-19T06:52:00Z</time>
      </trkpt>
      <trkpt lat="42.92104" lon="0.57808">
        <ele>1195</ele>
        <time>2018-04-19T06:52:23Z</time>
      </trkpt>
      <trkpt lat="42.92097" lon="0.57815">
        <ele>1196</ele>
        <time>2018-04-19T06:52:30Z</time>
      </trkpt>
      <trkpt lat="42.92086" lon="0.5783">
        <ele>1197</ele>
        <time>2018-04-19T06:52:46Z</time>
      </trkpt>
      <trkpt lat="42.92075" lon="0.57846">
        <ele>1199</ele>
        <time>2018-04-19T06:53:06Z</time>
      </trkpt>
      <trkpt lat="42.92074" lon="0.57849">
        <ele>1200</ele>
        <time>2018-04-19T06:53:09Z</time>
      </trkpt>
      <trkpt lat="42.92066" lon="0.57865">
        <ele>1201</ele>
        <time>2018-04-19T06:53:21Z</time>
      </trkpt>
      <trkpt lat="42.92065" lon="0.57865">
        <ele>1202</ele>
        <time>2018-04-19T06:53:22Z</time>
      </trkpt>
      <trkpt lat="42.9206" lon="0.57868">
        <ele>1202</ele>
        <time>2018-04-19T06:53:28Z</time>
      </trkpt>
      <trkpt lat="42.92055" lon="0.57873">
        <ele>1203</ele>
        <time>2018-04-19T06:53:34Z</time>
      </trkpt>
      <trkpt lat="42.92038" lon="0.57883">
        <ele>1205</ele>
        <time>2018-04-19T06:53:50Z</time>
      </trkpt>
      <trkpt lat="42.92021" lon="0.57884">
        <ele>1207</ele>
        <time>2018-04-19T06:54:07Z</time>
      </trkpt>
      <trkpt lat="42.92007" lon="0.57879">
        <ele>1209</ele>
        <time>2018-04-19T06:54:22Z</time>
      </trkpt>
      <trkpt lat="42.92002" lon="0.57876">
        <ele>1209</ele>
        <time>2018-04-19T06:54:27Z</time>
      </trkpt>
      <trkpt lat="42.92001" lon="0.57875">
        <ele>1209</ele>
        <time>2018-04-19T06:54:28Z</time>
      </trkpt>
      <trkpt lat="42.91994" lon="0.57875">
        <ele>1210</ele>
        <time>2018-04-19T06:54:34Z</time>
      </trkpt>
      <trkpt lat="42.91993" lon="0.57875">
        <ele>1210</ele>
        <time>2018-04-19T06:54:35Z</time>
      </trkpt>
      <trkpt lat="42.91976" lon="0.57878">
        <ele>1212</ele>
        <time>2018-04-19T06:54:53Z</time>
      </trkpt>
      <trkpt lat="42.91952" lon="0.57881">
        <ele>1214</ele>
        <time>2018-04-19T06:55:12Z</time>
      </trkpt>
      <trkpt lat="42.91937" lon="0.5787">
        <ele>1215</ele>
        <time>2018-04-19T06:55:27Z</time>
      </trkpt>
      <trkpt lat="42.91935" lon="0.57867">
        <ele>1216</ele>
        <time>2018-04-19T06:55:29Z</time>
      </trkpt>
      <trkpt lat="42.91933" lon="0.57864">
        <ele>1216</ele>
        <time>2018-04-19T06:55:30Z</time>
      </trkpt>
      <trkpt lat="42.91919" lon="0.57849">
        <ele>1218</ele>
        <time>2018-04-19T06:55:49Z</time>
      </trkpt>
      <trkpt lat="42.91917" lon="0.57847">
        <ele>1218</ele>
        <time>2018-04-19T06:55:53Z</time>
      </trkpt>
      <trkpt lat="42.91897" lon="0.57836">
        <ele>1221</ele>
        <time>2018-04-19T06:56:13Z</time>
      </trkpt>
      <trkpt lat="42.91884" lon="0.57827">
        <ele>1223</ele>
        <time>2018-04-19T06:56:27Z</time>
      </trkpt>
      <trkpt lat="42.9187" lon="0.57819">
        <ele>1225</ele>
        <time>2018-04-19T06:56:46Z</time>
      </trkpt>
      <trkpt lat="42.9185" lon="0.57809">
        <ele>1227</ele>
        <time>2018-04-19T06:57:05Z</time>
      </trkpt>
      <trkpt lat="42.91826" lon="0.57798">
        <ele>1230</ele>
        <time>2018-04-19T06:57:25Z</time>
      </trkpt>
      <trkpt lat="42.91804" lon="0.57788">
        <ele>1232</ele>
        <time>2018-04-19T06:57:48Z</time>
      </trkpt>
      <trkpt lat="42.91803" lon="0.57787">
        <ele>1233</ele>
        <time>2018-04-19T06:57:49Z</time>
      </trkpt>
      <trkpt lat="42.91788" lon="0.5778">
        <ele>1234</ele>
        <time>2018-04-19T06:58:04Z</time>
      </trkpt>
      <trkpt lat="42.91787" lon="0.5778">
        <ele>1234</ele>
        <time>2018-04-19T06:58:05Z</time>
      </trkpt>
      <trkpt lat="42.91786" lon="0.57781">
        <ele>1234</ele>
        <time>2018-04-19T06:58:06Z</time>
      </trkpt>
      <trkpt lat="42.91785" lon="0.57782">
        <ele>1234</ele>
        <time>2018-04-19T06:58:07Z</time>
      </trkpt>
      <trkpt lat="42.91787" lon="0.57782">
        <ele>1235</ele>
        <time>2018-04-19T06:58:23Z</time>
      </trkpt>
      <trkpt lat="42.91781" lon="0.57781">
        <ele>1235</ele>
        <time>2018-04-19T06:58:43Z</time>
      </trkpt>
      <trkpt lat="42.91778" lon="0.57783">
        <ele>1237</ele>
        <time>2018-04-19T06:58:45Z</time>
      </trkpt>
      <trkpt lat="42.91772" lon="0.57783">
        <ele>1236</ele>
        <time>2018-04-19T06:58:49Z</time>
      </trkpt>
      <trkpt lat="42.91749" lon="0.57784">
        <ele>1238</ele>
        <time>2018-04-19T06:59:08Z</time>
      </trkpt>
      <trkpt lat="42.91737" lon="0.57793">
        <ele>1241</ele>
        <time>2018-04-19T06:59:25Z</time>
      </trkpt>
      <trkpt lat="42.91729" lon="0.57808">
        <ele>1242</ele>
        <time>2018-04-19T06:59:36Z</time>
      </trkpt>
      <trkpt lat="42.91727" lon="0.5781">
        <ele>1242</ele>
        <time>2018-04-19T06:59:37Z</time>
      </trkpt>
      <trkpt lat="42.91726" lon="0.57812">
        <ele>1242</ele>
        <time>2018-04-19T06:59:38Z</time>
      </trkpt>
      <trkpt lat="42.91721" lon="0.57821">
        <ele>1241</ele>
        <time>2018-04-19T06:59:58Z</time>
      </trkpt>
      <trkpt lat="42.91718" lon="0.57824">
        <ele>1245</ele>
        <time>2018-04-19T07:00:10Z</time>
      </trkpt>
      <trkpt lat="42.91717" lon="0.57826">
        <ele>1243</ele>
        <time>2018-04-19T07:00:11Z</time>
      </trkpt>
      <trkpt lat="42.91716" lon="0.57827">
        <ele>1243</ele>
        <time>2018-04-19T07:00:12Z</time>
      </trkpt>
      <trkpt lat="42.91715" lon="0.57828">
        <ele>1243</ele>
        <time>2018-04-19T07:00:13Z</time>
      </trkpt>
      <trkpt lat="42.91704" lon="0.57855">
        <ele>1244</ele>
        <time>2018-04-19T07:00:31Z</time>
      </trkpt>
      <trkpt lat="42.91692" lon="0.57877">
        <ele>1245</ele>
        <time>2018-04-19T07:00:49Z</time>
      </trkpt>
      <trkpt lat="42.91691" lon="0.57879">
        <ele>1245</ele>
        <time>2018-04-19T07:00:51Z</time>
      </trkpt>
      <trkpt lat="42.91672" lon="0.57904">
        <ele>1246</ele>
        <time>2018-04-19T07:01:12Z</time>
      </trkpt>
      <trkpt lat="42.91659" lon="0.57936">
        <ele>1246</ele>
        <time>2018-04-19T07:01:30Z</time>
      </trkpt>
      <trkpt lat="42.91655" lon="0.57975">
        <ele>1246</ele>
        <time>2018-04-19T07:01:49Z</time>
      </trkpt>
      <trkpt lat="42.91654" lon="0.57977">
        <ele>1246</ele>
        <time>2018-04-19T07:01:50Z</time>
      </trkpt>
      <trkpt lat="42.91642" lon="0.57999">
        <ele>1246</ele>
        <time>2018-04-19T07:02:08Z</time>
      </trkpt>
      <trkpt lat="42.91619" lon="0.5803">
        <ele>1246</ele>
        <time>2018-04-19T07:02:32Z</time>
      </trkpt>
      <trkpt lat="42.91607" lon="0.58048">
        <ele>1245</ele>
        <time>2018-04-19T07:02:50Z</time>
      </trkpt>
      <trkpt lat="42.91606" lon="0.58049">
        <ele>1245</ele>
        <time>2018-04-19T07:02:51Z</time>
      </trkpt>
      <trkpt lat="42.91587" lon="0.58068">
        <ele>1245</ele>
        <time>2018-04-19T07:03:06Z</time>
      </trkpt>
      <trkpt lat="42.91575" lon="0.58101">
        <ele>1245</ele>
        <time>2018-04-19T07:03:27Z</time>
      </trkpt>
      <trkpt lat="42.91558" lon="0.5814">
        <ele>1245</ele>
        <time>2018-04-19T07:03:48Z</time>
      </trkpt>
      <trkpt lat="42.91556" lon="0.58157">
        <ele>1245</ele>
        <time>2018-04-19T07:04:03Z</time>
      </trkpt>
      <trkpt lat="42.91556" lon="0.58159">
        <ele>1245</ele>
        <time>2018-04-19T07:04:04Z</time>
      </trkpt>
      <trkpt lat="42.91556" lon="0.58162">
        <ele>1245</ele>
        <time>2018-04-19T07:04:05Z</time>
      </trkpt>
      <trkpt lat="42.91556" lon="0.58164">
        <ele>1245</ele>
        <time>2018-04-19T07:04:06Z</time>
      </trkpt>
      <trkpt lat="42.91556" lon="0.58167">
        <ele>1245</ele>
        <time>2018-04-19T07:04:07Z</time>
      </trkpt>
      <trkpt lat="42.91555" lon="0.58169">
        <ele>1245</ele>
        <time>2018-04-19T07:04:08Z</time>
      </trkpt>
      <trkpt lat="42.91556" lon="0.58172">
        <ele>1245</ele>
        <time>2018-04-19T07:04:09Z</time>
      </trkpt>
      <trkpt lat="42.91556" lon="0.58174">
        <ele>1245</ele>
        <time>2018-04-19T07:04:10Z</time>
      </trkpt>
      <trkpt lat="42.91557" lon="0.58176">
        <ele>1245</ele>
        <time>2018-04-19T07:04:11Z</time>
      </trkpt>
      <trkpt lat="42.91558" lon="0.58178">
        <ele>1246</ele>
        <time>2018-04-19T07:04:12Z</time>
      </trkpt>
      <trkpt lat="42.91558" lon="0.58179">
        <ele>1245</ele>
        <time>2018-04-19T07:04:13Z</time>
      </trkpt>
      <trkpt lat="42.91562" lon="0.58196">
        <ele>1245</ele>
        <time>2018-04-19T07:04:28Z</time>
      </trkpt>
      <trkpt lat="42.91562" lon="0.58201">
        <ele>1245</ele>
        <time>2018-04-19T07:04:30Z</time>
      </trkpt>
      <trkpt lat="42.9155" lon="0.58244">
        <ele>1245</ele>
        <time>2018-04-19T07:04:49Z</time>
      </trkpt>
      <trkpt lat="42.91535" lon="0.58269">
        <ele>1245</ele>
        <time>2018-04-19T07:05:07Z</time>
      </trkpt>
      <trkpt lat="42.91537" lon="0.58301">
        <ele>1246</ele>
        <time>2018-04-19T07:05:28Z</time>
      </trkpt>
      <trkpt lat="42.91537" lon="0.58303">
        <ele>1246</ele>
        <time>2018-04-19T07:05:29Z</time>
      </trkpt>
      <trkpt lat="42.91537" lon="0.58305">
        <ele>1246</ele>
        <time>2018-04-19T07:05:30Z</time>
      </trkpt>
      <trkpt lat="42.91537" lon="0.58307">
        <ele>1246</ele>
        <time>2018-04-19T07:05:31Z</time>
      </trkpt>
      <trkpt lat="42.91536" lon="0.58309">
        <ele>1246</ele>
        <time>2018-04-19T07:05:32Z</time>
      </trkpt>
      <trkpt lat="42.91536" lon="0.58311">
        <ele>1246</ele>
        <time>2018-04-19T07:05:33Z</time>
      </trkpt>
      <trkpt lat="42.91535" lon="0.58313">
        <ele>1246</ele>
        <time>2018-04-19T07:05:34Z</time>
      </trkpt>
      <trkpt lat="42.91535" lon="0.58315">
        <ele>1246</ele>
        <time>2018-04-19T07:05:35Z</time>
      </trkpt>
      <trkpt lat="42.91535" lon="0.58317">
        <ele>1246</ele>
        <time>2018-04-19T07:05:36Z</time>
      </trkpt>
      <trkpt lat="42.91534" lon="0.58319">
        <ele>1246</ele>
        <time>2018-04-19T07:05:37Z</time>
      </trkpt>
      <trkpt lat="42.91527" lon="0.58345">
        <ele>1248</ele>
        <time>2018-04-19T07:05:55Z</time>
      </trkpt>
      <trkpt lat="42.91502" lon="0.5837">
        <ele>1249</ele>
        <time>2018-04-19T07:06:16Z</time>
      </trkpt>
      <trkpt lat="42.91489" lon="0.58374">
        <ele>1250</ele>
        <time>2018-04-19T07:06:32Z</time>
      </trkpt>
      <trkpt lat="42.91485" lon="0.58379">
        <ele>1250</ele>
        <time>2018-04-19T07:06:36Z</time>
      </trkpt>
      <trkpt lat="42.91479" lon="0.58388">
        <ele>1250</ele>
        <time>2018-04-19T07:06:41Z</time>
      </trkpt>
      <trkpt lat="42.91479" lon="0.5839">
        <ele>1251</ele>
        <time>2018-04-19T07:06:42Z</time>
      </trkpt>
      <trkpt lat="42.91478" lon="0.58392">
        <ele>1251</ele>
        <time>2018-04-19T07:06:43Z</time>
      </trkpt>
      <trkpt lat="42.91478" lon="0.58395">
        <ele>1250</ele>
        <time>2018-04-19T07:06:44Z</time>
      </trkpt>
      <trkpt lat="42.91477" lon="0.58396">
        <ele>1251</ele>
        <time>2018-04-19T07:06:45Z</time>
      </trkpt>
      <trkpt lat="42.91477" lon="0.58398">
        <ele>1251</ele>
        <time>2018-04-19T07:06:46Z</time>
      </trkpt>
      <trkpt lat="42.91477" lon="0.584">
        <ele>1251</ele>
        <time>2018-04-19T07:06:47Z</time>
      </trkpt>
      <trkpt lat="42.91475" lon="0.5842">
        <ele>1252</ele>
        <time>2018-04-19T07:07:01Z</time>
      </trkpt>
      <trkpt lat="42.91464" lon="0.58448">
        <ele>1253</ele>
        <time>2018-04-19T07:07:20Z</time>
      </trkpt>
      <trkpt lat="42.91472" lon="0.58482">
        <ele>1255</ele>
        <time>2018-04-19T07:07:40Z</time>
      </trkpt>
      <trkpt lat="42.91466" lon="0.58515">
        <ele>1255</ele>
        <time>2018-04-19T07:07:59Z</time>
      </trkpt>
      <trkpt lat="42.91464" lon="0.58522">
        <ele>1256</ele>
        <time>2018-04-19T07:08:04Z</time>
      </trkpt>
      <trkpt lat="42.91464" lon="0.58524">
        <ele>1256</ele>
        <time>2018-04-19T07:08:05Z</time>
      </trkpt>
      <trkpt lat="42.91464" lon="0.58527">
        <ele>1256</ele>
        <time>2018-04-19T07:08:06Z</time>
      </trkpt>
      <trkpt lat="42.91462" lon="0.58548">
        <ele>1257</ele>
        <time>2018-04-19T07:08:19Z</time>
      </trkpt>
      <trkpt lat="42.91462" lon="0.58551">
        <ele>1257</ele>
        <time>2018-04-19T07:08:20Z</time>
      </trkpt>
      <trkpt lat="42.91462" lon="0.58553">
        <ele>1257</ele>
        <time>2018-04-19T07:08:21Z</time>
      </trkpt>
      <trkpt lat="42.91463" lon="0.58566">
        <ele>1258</ele>
        <time>2018-04-19T07:08:31Z</time>
      </trkpt>
      <trkpt lat="42.91463" lon="0.58568">
        <ele>1258</ele>
        <time>2018-04-19T07:08:32Z</time>
      </trkpt>
      <trkpt lat="42.91464" lon="0.5857">
        <ele>1258</ele>
        <time>2018-04-19T07:08:33Z</time>
      </trkpt>
      <trkpt lat="42.91468" lon="0.58599">
        <ele>1259</ele>
        <time>2018-04-19T07:08:52Z</time>
      </trkpt>
      <trkpt lat="42.91475" lon="0.58614">
        <ele>1260</ele>
        <time>2018-04-19T07:09:03Z</time>
      </trkpt>
      <trkpt lat="42.91476" lon="0.58616">
        <ele>1260</ele>
        <time>2018-04-19T07:09:04Z</time>
      </trkpt>
      <trkpt lat="42.91486" lon="0.58637">
        <ele>1261</ele>
        <time>2018-04-19T07:09:22Z</time>
      </trkpt>
      <trkpt lat="42.91487" lon="0.58658">
        <ele>1263</ele>
        <time>2018-04-19T07:09:38Z</time>
      </trkpt>
      <trkpt lat="42.91485" lon="0.58661">
        <ele>1263</ele>
        <time>2018-04-19T07:09:40Z</time>
      </trkpt>
      <trkpt lat="42.91484" lon="0.58661">
        <ele>1262</ele>
        <time>2018-04-19T07:09:41Z</time>
      </trkpt>
      <trkpt lat="42.91478" lon="0.58663">
        <ele>1262</ele>
        <time>2018-04-19T07:09:51Z</time>
      </trkpt>
      <trkpt lat="42.91478" lon="0.5867">
        <ele>1265</ele>
        <time>2018-04-19T07:09:55Z</time>
      </trkpt>
      <trkpt lat="42.91479" lon="0.58672">
        <ele>1263</ele>
        <time>2018-04-19T07:09:56Z</time>
      </trkpt>
      <trkpt lat="42.91481" lon="0.58681">
        <ele>1264</ele>
        <time>2018-04-19T07:10:03Z</time>
      </trkpt>
      <trkpt lat="42.91474" lon="0.58712">
        <ele>1265</ele>
        <time>2018-04-19T07:10:21Z</time>
      </trkpt>
      <trkpt lat="42.91473" lon="0.58711">
        <ele>1265</ele>
        <time>2018-04-19T07:10:22Z</time>
      </trkpt>
      <trkpt lat="42.91473" lon="0.58709">
        <ele>1265</ele>
        <time>2018-04-19T07:10:23Z</time>
      </trkpt>
      <trkpt lat="42.91473" lon="0.58707">
        <ele>1265</ele>
        <time>2018-04-19T07:10:24Z</time>
      </trkpt>
      <trkpt lat="42.91457" lon="0.58694">
        <ele>1268</ele>
        <time>2018-04-19T07:10:40Z</time>
      </trkpt>
      <trkpt lat="42.91447" lon="0.58697">
        <ele>1270</ele>
        <time>2018-04-19T07:10:51Z</time>
      </trkpt>
      <trkpt lat="42.91434" lon="0.58711">
        <ele>1272</ele>
        <time>2018-04-19T07:11:07Z</time>
      </trkpt>
      <trkpt lat="42.91433" lon="0.58712">
        <ele>1272</ele>
        <time>2018-04-19T07:11:08Z</time>
      </trkpt>
      <trkpt lat="42.91419" lon="0.58726">
        <ele>1273</ele>
        <time>2018-04-19T07:11:23Z</time>
      </trkpt>
      <trkpt lat="42.9141" lon="0.58729">
        <ele>1274</ele>
        <time>2018-04-19T07:11:34Z</time>
      </trkpt>
      <trkpt lat="42.91409" lon="0.58729">
        <ele>1274</ele>
        <time>2018-04-19T07:11:35Z</time>
      </trkpt>
      <trkpt lat="42.91407" lon="0.58729">
        <ele>1274</ele>
        <time>2018-04-19T07:11:36Z</time>
      </trkpt>
      <trkpt lat="42.91406" lon="0.58729">
        <ele>1274</ele>
        <time>2018-04-19T07:11:37Z</time>
      </trkpt>
      <trkpt lat="42.91404" lon="0.58728">
        <ele>1274</ele>
        <time>2018-04-19T07:11:38Z</time>
      </trkpt>
      <trkpt lat="42.91403" lon="0.58726">
        <ele>1274</ele>
        <time>2018-04-19T07:11:39Z</time>
      </trkpt>
      <trkpt lat="42.91388" lon="0.58711">
        <ele>1276</ele>
        <time>2018-04-19T07:11:55Z</time>
      </trkpt>
      <trkpt lat="42.91386" lon="0.5871">
        <ele>1277</ele>
        <time>2018-04-19T07:11:59Z</time>
      </trkpt>
      <trkpt lat="42.91384" lon="0.58711">
        <ele>1277</ele>
        <time>2018-04-19T07:12:00Z</time>
      </trkpt>
      <trkpt lat="42.91382" lon="0.58711">
        <ele>1277</ele>
        <time>2018-04-19T07:12:01Z</time>
      </trkpt>
      <trkpt lat="42.91378" lon="0.58713">
        <ele>1278</ele>
        <time>2018-04-19T07:12:07Z</time>
      </trkpt>
      <trkpt lat="42.91376" lon="0.58714">
        <ele>1278</ele>
        <time>2018-04-19T07:12:08Z</time>
      </trkpt>
      <trkpt lat="42.9136" lon="0.58724">
        <ele>1279</ele>
        <time>2018-04-19T07:12:25Z</time>
      </trkpt>
      <trkpt lat="42.91358" lon="0.58724">
        <ele>1279</ele>
        <time>2018-04-19T07:12:26Z</time>
      </trkpt>
      <trkpt lat="42.91357" lon="0.58724">
        <ele>1279</ele>
        <time>2018-04-19T07:12:27Z</time>
      </trkpt>
      <trkpt lat="42.91356" lon="0.58724">
        <ele>1279</ele>
        <time>2018-04-19T07:12:28Z</time>
      </trkpt>
      <trkpt lat="42.91354" lon="0.58724">
        <ele>1279</ele>
        <time>2018-04-19T07:12:29Z</time>
      </trkpt>
      <trkpt lat="42.91342" lon="0.58719">
        <ele>1281</ele>
        <time>2018-04-19T07:12:41Z</time>
      </trkpt>
      <trkpt lat="42.91341" lon="0.58718">
        <ele>1281</ele>
        <time>2018-04-19T07:12:42Z</time>
      </trkpt>
      <trkpt lat="42.9133" lon="0.58704">
        <ele>1282</ele>
        <time>2018-04-19T07:12:58Z</time>
      </trkpt>
      <trkpt lat="42.91317" lon="0.58679">
        <ele>1283</ele>
        <time>2018-04-19T07:13:14Z</time>
      </trkpt>
      <trkpt lat="42.91307" lon="0.58658">
        <ele>1286</ele>
        <time>2018-04-19T07:13:31Z</time>
      </trkpt>
      <trkpt lat="42.91295" lon="0.58638">
        <ele>1287</ele>
        <time>2018-04-19T07:13:47Z</time>
      </trkpt>
      <trkpt lat="42.91294" lon="0.58633">
        <ele>1288</ele>
        <time>2018-04-19T07:13:52Z</time>
      </trkpt>
      <trkpt lat="42.91293" lon="0.58632">
        <ele>1288</ele>
        <time>2018-04-19T07:13:53Z</time>
      </trkpt>
      <trkpt lat="42.91292" lon="0.5863">
        <ele>1288</ele>
        <time>2018-04-19T07:13:54Z</time>
      </trkpt>
      <trkpt lat="42.91284" lon="0.58617">
        <ele>1289</ele>
        <time>2018-04-19T07:14:07Z</time>
      </trkpt>
      <trkpt lat="42.91284" lon="0.58616">
        <ele>1289</ele>
        <time>2018-04-19T07:14:08Z</time>
      </trkpt>
      <trkpt lat="42.91281" lon="0.58607">
        <ele>1290</ele>
        <time>2018-04-19T07:14:18Z</time>
      </trkpt>
      <trkpt lat="42.9128" lon="0.58606">
        <ele>1290</ele>
        <time>2018-04-19T07:14:19Z</time>
      </trkpt>
      <trkpt lat="42.91278" lon="0.586">
        <ele>1290</ele>
        <time>2018-04-19T07:14:39Z</time>
      </trkpt>
      <trkpt lat="42.91277" lon="0.58597">
        <ele>1292</ele>
        <time>2018-04-19T07:14:43Z</time>
      </trkpt>
      <trkpt lat="42.91277" lon="0.58595">
        <ele>1290</ele>
        <time>2018-04-19T07:14:44Z</time>
      </trkpt>
      <trkpt lat="42.91275" lon="0.58593">
        <ele>1293</ele>
        <time>2018-04-19T07:14:45Z</time>
      </trkpt>
      <trkpt lat="42.91264" lon="0.58567">
        <ele>1294</ele>
        <time>2018-04-19T07:15:03Z</time>
      </trkpt>
      <trkpt lat="42.91252" lon="0.58546">
        <ele>1296</ele>
        <time>2018-04-19T07:15:20Z</time>
      </trkpt>
      <trkpt lat="42.9125" lon="0.58541">
        <ele>1296</ele>
        <time>2018-04-19T07:15:25Z</time>
      </trkpt>
      <trkpt lat="42.91242" lon="0.58522">
        <ele>1298</ele>
        <time>2018-04-19T07:15:39Z</time>
      </trkpt>
      <trkpt lat="42.91231" lon="0.585">
        <ele>1300</ele>
        <time>2018-04-19T07:15:55Z</time>
      </trkpt>
      <trkpt lat="42.91217" lon="0.58483">
        <ele>1302</ele>
        <time>2018-04-19T07:16:12Z</time>
      </trkpt>
      <trkpt lat="42.91202" lon="0.58466">
        <ele>1305</ele>
        <time>2018-04-19T07:16:29Z</time>
      </trkpt>
      <trkpt lat="42.91188" lon="0.58456">
        <ele>1306</ele>
        <time>2018-04-19T07:16:43Z</time>
      </trkpt>
      <trkpt lat="42.91176" lon="0.58445">
        <ele>1308</ele>
        <time>2018-04-19T07:16:59Z</time>
      </trkpt>
      <trkpt lat="42.91173" lon="0.58441">
        <ele>1309</ele>
        <time>2018-04-19T07:17:04Z</time>
      </trkpt>
      <trkpt lat="42.91158" lon="0.58424">
        <ele>1312</ele>
        <time>2018-04-19T07:17:23Z</time>
      </trkpt>
      <trkpt lat="42.91146" lon="0.5841">
        <ele>1314</ele>
        <time>2018-04-19T07:17:40Z</time>
      </trkpt>
      <trkpt lat="42.91141" lon="0.58399">
        <ele>1316</ele>
        <time>2018-04-19T07:17:53Z</time>
      </trkpt>
      <trkpt lat="42.91133" lon="0.58381">
        <ele>1317</ele>
        <time>2018-04-19T07:18:05Z</time>
      </trkpt>
      <trkpt lat="42.91131" lon="0.58378">
        <ele>1318</ele>
        <time>2018-04-19T07:18:16Z</time>
      </trkpt>
      <trkpt lat="42.9113" lon="0.58377">
        <ele>1318</ele>
        <time>2018-04-19T07:18:17Z</time>
      </trkpt>
      <trkpt lat="42.91129" lon="0.58376">
        <ele>1318</ele>
        <time>2018-04-19T07:18:18Z</time>
      </trkpt>
      <trkpt lat="42.91128" lon="0.58376">
        <ele>1318</ele>
        <time>2018-04-19T07:18:21Z</time>
      </trkpt>
      <trkpt lat="42.91125" lon="0.58362">
        <ele>1320</ele>
        <time>2018-04-19T07:18:34Z</time>
      </trkpt>
      <trkpt lat="42.91122" lon="0.58344">
        <ele>1322</ele>
        <time>2018-04-19T07:18:49Z</time>
      </trkpt>
      <trkpt lat="42.91121" lon="0.58342">
        <ele>1322</ele>
        <time>2018-04-19T07:18:51Z</time>
      </trkpt>
      <trkpt lat="42.9112" lon="0.5834">
        <ele>1322</ele>
        <time>2018-04-19T07:18:52Z</time>
      </trkpt>
      <trkpt lat="42.91115" lon="0.58326">
        <ele>1324</ele>
        <time>2018-04-19T07:19:03Z</time>
      </trkpt>
      <trkpt lat="42.91115" lon="0.58323">
        <ele>1324</ele>
        <time>2018-04-19T07:19:04Z</time>
      </trkpt>
      <trkpt lat="42.91115" lon="0.58321">
        <ele>1324</ele>
        <time>2018-04-19T07:19:05Z</time>
      </trkpt>
      <trkpt lat="42.91113" lon="0.58296">
        <ele>1326</ele>
        <time>2018-04-19T07:19:21Z</time>
      </trkpt>
      <trkpt lat="42.91111" lon="0.58288">
        <ele>1327</ele>
        <time>2018-04-19T07:19:28Z</time>
      </trkpt>
      <trkpt lat="42.9111" lon="0.58288">
        <ele>1328</ele>
        <time>2018-04-19T07:19:33Z</time>
      </trkpt>
      <trkpt lat="42.9111" lon="0.58286">
        <ele>1326</ele>
        <time>2018-04-19T07:19:52Z</time>
      </trkpt>
      <trkpt lat="42.91117" lon="0.58285">
        <ele>1326</ele>
        <time>2018-04-19T07:20:09Z</time>
      </trkpt>
      <trkpt lat="42.91118" lon="0.5829">
        <ele>1326</ele>
        <time>2018-04-19T07:20:45Z</time>
      </trkpt>
      <trkpt lat="42.91113" lon="0.5829">
        <ele>1326</ele>
        <time>2018-04-19T07:20:54Z</time>
      </trkpt>
      <trkpt lat="42.91109" lon="0.5831">
        <ele>1327</ele>
        <time>2018-04-19T07:21:10Z</time>
      </trkpt>
      <trkpt lat="42.91107" lon="0.58292">
        <ele>1327</ele>
        <time>2018-04-19T07:21:38Z</time>
      </trkpt>
      <trkpt lat="42.91107" lon="0.58291">
        <ele>1328</ele>
        <time>2018-04-19T07:21:45Z</time>
      </trkpt>
      <trkpt lat="42.91105" lon="0.58295">
        <ele>1328</ele>
        <time>2018-04-19T07:21:52Z</time>
      </trkpt>
      <trkpt lat="42.91103" lon="0.58304">
        <ele>1329</ele>
        <time>2018-04-19T07:21:59Z</time>
      </trkpt>
      <trkpt lat="42.91105" lon="0.58311">
        <ele>1330</ele>
        <time>2018-04-19T07:22:17Z</time>
      </trkpt>
      <trkpt lat="42.91101" lon="0.58317">
        <ele>1333</ele>
        <time>2018-04-19T07:22:24Z</time>
      </trkpt>
      <trkpt lat="42.911" lon="0.58335">
        <ele>1333</ele>
        <time>2018-04-19T07:22:36Z</time>
      </trkpt>
      <trkpt lat="42.91096" lon="0.58361">
        <ele>1336</ele>
        <time>2018-04-19T07:22:54Z</time>
      </trkpt>
      <trkpt lat="42.91096" lon="0.58366">
        <ele>1336</ele>
        <time>2018-04-19T07:22:58Z</time>
      </trkpt>
      <trkpt lat="42.91098" lon="0.58396">
        <ele>1339</ele>
        <time>2018-04-19T07:23:18Z</time>
      </trkpt>
      <trkpt lat="42.91101" lon="0.58417">
        <ele>1341</ele>
        <time>2018-04-19T07:23:35Z</time>
      </trkpt>
      <trkpt lat="42.91105" lon="0.58438">
        <ele>1342</ele>
        <time>2018-04-19T07:23:55Z</time>
      </trkpt>
      <trkpt lat="42.91106" lon="0.58447">
        <ele>1343</ele>
        <time>2018-04-19T07:24:02Z</time>
      </trkpt>
      <trkpt lat="42.91116" lon="0.58469">
        <ele>1345</ele>
        <time>2018-04-19T07:24:20Z</time>
      </trkpt>
      <trkpt lat="42.91126" lon="0.58492">
        <ele>1347</ele>
        <time>2018-04-19T07:24:38Z</time>
      </trkpt>
      <trkpt lat="42.91127" lon="0.58493">
        <ele>1347</ele>
        <time>2018-04-19T07:24:40Z</time>
      </trkpt>
      <trkpt lat="42.91132" lon="0.58502">
        <ele>1349</ele>
        <time>2018-04-19T07:24:48Z</time>
      </trkpt>
      <trkpt lat="42.91136" lon="0.5851">
        <ele>1349</ele>
        <time>2018-04-19T07:24:55Z</time>
      </trkpt>
      <trkpt lat="42.91139" lon="0.58518">
        <ele>1351</ele>
        <time>2018-04-19T07:25:02Z</time>
      </trkpt>
      <trkpt lat="42.91145" lon="0.58537">
        <ele>1352</ele>
        <time>2018-04-19T07:25:17Z</time>
      </trkpt>
      <trkpt lat="42.91154" lon="0.58552">
        <ele>1354</ele>
        <time>2018-04-19T07:25:30Z</time>
      </trkpt>
      <trkpt lat="42.9116" lon="0.58568">
        <ele>1356</ele>
        <time>2018-04-19T07:25:44Z</time>
      </trkpt>
      <trkpt lat="42.91165" lon="0.58588">
        <ele>1358</ele>
        <time>2018-04-19T07:26:01Z</time>
      </trkpt>
      <trkpt lat="42.91166" lon="0.58588">
        <ele>1358</ele>
        <time>2018-04-19T07:26:03Z</time>
      </trkpt>
      <trkpt lat="42.91172" lon="0.58604">
        <ele>1360</ele>
        <time>2018-04-19T07:26:16Z</time>
      </trkpt>
      <trkpt lat="42.91174" lon="0.58613">
        <ele>1361</ele>
        <time>2018-04-19T07:26:23Z</time>
      </trkpt>
      <trkpt lat="42.91176" lon="0.58622">
        <ele>1362</ele>
        <time>2018-04-19T07:26:29Z</time>
      </trkpt>
      <trkpt lat="42.91179" lon="0.58637">
        <ele>1363</ele>
        <time>2018-04-19T07:26:39Z</time>
      </trkpt>
      <trkpt lat="42.91182" lon="0.58645">
        <ele>1364</ele>
        <time>2018-04-19T07:26:46Z</time>
      </trkpt>
      <trkpt lat="42.91188" lon="0.58666">
        <ele>1366</ele>
        <time>2018-04-19T07:27:01Z</time>
      </trkpt>
      <trkpt lat="42.91193" lon="0.58681">
        <ele>1368</ele>
        <time>2018-04-19T07:27:15Z</time>
      </trkpt>
      <trkpt lat="42.91193" lon="0.58685">
        <ele>1368</ele>
        <time>2018-04-19T07:27:19Z</time>
      </trkpt>
      <trkpt lat="42.91202" lon="0.5871">
        <ele>1370</ele>
        <time>2018-04-19T07:27:36Z</time>
      </trkpt>
      <trkpt lat="42.91202" lon="0.58712">
        <ele>1370</ele>
        <time>2018-04-19T07:27:39Z</time>
      </trkpt>
      <trkpt lat="42.91205" lon="0.58722">
        <ele>1371</ele>
        <time>2018-04-19T07:27:46Z</time>
      </trkpt>
      <trkpt lat="42.91208" lon="0.58734">
        <ele>1372</ele>
        <time>2018-04-19T07:27:54Z</time>
      </trkpt>
      <trkpt lat="42.91216" lon="0.5876">
        <ele>1375</ele>
        <time>2018-04-19T07:28:14Z</time>
      </trkpt>
      <trkpt lat="42.91222" lon="0.58783">
        <ele>1377</ele>
        <time>2018-04-19T07:28:30Z</time>
      </trkpt>
      <trkpt lat="42.91223" lon="0.58802">
        <ele>1379</ele>
        <time>2018-04-19T07:28:44Z</time>
      </trkpt>
      <trkpt lat="42.91225" lon="0.58814">
        <ele>1380</ele>
        <time>2018-04-19T07:28:53Z</time>
      </trkpt>
      <trkpt lat="42.91227" lon="0.58822">
        <ele>1381</ele>
        <time>2018-04-19T07:29:00Z</time>
      </trkpt>
      <trkpt lat="42.9123" lon="0.58849">
        <ele>1382</ele>
        <time>2018-04-19T07:29:20Z</time>
      </trkpt>
      <trkpt lat="42.91236" lon="0.58874">
        <ele>1384</ele>
        <time>2018-04-19T07:29:37Z</time>
      </trkpt>
      <trkpt lat="42.91236" lon="0.58877">
        <ele>1384</ele>
        <time>2018-04-19T07:29:41Z</time>
      </trkpt>
      <trkpt lat="42.91242" lon="0.58901">
        <ele>1386</ele>
        <time>2018-04-19T07:29:59Z</time>
      </trkpt>
      <trkpt lat="42.91244" lon="0.58911">
        <ele>1387</ele>
        <time>2018-04-19T07:30:06Z</time>
      </trkpt>
      <trkpt lat="42.91249" lon="0.58931">
        <ele>1389</ele>
        <time>2018-04-19T07:30:22Z</time>
      </trkpt>
      <trkpt lat="42.91252" lon="0.58945">
        <ele>1390</ele>
        <time>2018-04-19T07:30:31Z</time>
      </trkpt>
      <trkpt lat="42.9126" lon="0.58972">
        <ele>1392</ele>
        <time>2018-04-19T07:30:50Z</time>
      </trkpt>
      <trkpt lat="42.91264" lon="0.5899">
        <ele>1394</ele>
        <time>2018-04-19T07:31:04Z</time>
      </trkpt>
      <trkpt lat="42.91266" lon="0.58996">
        <ele>1394</ele>
        <time>2018-04-19T07:31:09Z</time>
      </trkpt>
      <trkpt lat="42.91268" lon="0.59007">
        <ele>1395</ele>
        <time>2018-04-19T07:31:16Z</time>
      </trkpt>
      <trkpt lat="42.91271" lon="0.59019">
        <ele>1396</ele>
        <time>2018-04-19T07:31:25Z</time>
      </trkpt>
      <trkpt lat="42.91275" lon="0.59028">
        <ele>1396</ele>
        <time>2018-04-19T07:31:32Z</time>
      </trkpt>
      <trkpt lat="42.91275" lon="0.5903">
        <ele>1396</ele>
        <time>2018-04-19T07:31:34Z</time>
      </trkpt>
      <trkpt lat="42.91281" lon="0.59053">
        <ele>1399</ele>
        <time>2018-04-19T07:31:53Z</time>
      </trkpt>
      <trkpt lat="42.91285" lon="0.59063">
        <ele>1400</ele>
        <time>2018-04-19T07:32:00Z</time>
      </trkpt>
      <trkpt lat="42.91286" lon="0.59071">
        <ele>1401</ele>
        <time>2018-04-19T07:32:06Z</time>
      </trkpt>
      <trkpt lat="42.9129" lon="0.59093">
        <ele>1403</ele>
        <time>2018-04-19T07:32:24Z</time>
      </trkpt>
      <trkpt lat="42.91295" lon="0.59122">
        <ele>1405</ele>
        <time>2018-04-19T07:32:44Z</time>
      </trkpt>
      <trkpt lat="42.91296" lon="0.59137">
        <ele>1407</ele>
        <time>2018-04-19T07:33:03Z</time>
      </trkpt>
      <trkpt lat="42.91298" lon="0.59142">
        <ele>1408</ele>
        <time>2018-04-19T07:33:08Z</time>
      </trkpt>
      <trkpt lat="42.91303" lon="0.59165">
        <ele>1410</ele>
        <time>2018-04-19T07:33:25Z</time>
      </trkpt>
      <trkpt lat="42.91304" lon="0.59169">
        <ele>1410</ele>
        <time>2018-04-19T07:33:28Z</time>
      </trkpt>
      <trkpt lat="42.9131" lon="0.59187">
        <ele>1413</ele>
        <time>2018-04-19T07:33:43Z</time>
      </trkpt>
      <trkpt lat="42.91312" lon="0.592">
        <ele>1415</ele>
        <time>2018-04-19T07:33:56Z</time>
      </trkpt>
      <trkpt lat="42.91314" lon="0.59206">
        <ele>1415</ele>
        <time>2018-04-19T07:34:01Z</time>
      </trkpt>
      <trkpt lat="42.91315" lon="0.59212">
        <ele>1416</ele>
        <time>2018-04-19T07:34:05Z</time>
      </trkpt>
      <trkpt lat="42.91316" lon="0.5923">
        <ele>1419</ele>
        <time>2018-04-19T07:34:23Z</time>
      </trkpt>
      <trkpt lat="42.91315" lon="0.59248">
        <ele>1421</ele>
        <time>2018-04-19T07:34:40Z</time>
      </trkpt>
      <trkpt lat="42.91312" lon="0.59257">
        <ele>1424</ele>
        <time>2018-04-19T07:34:56Z</time>
      </trkpt>
      <trkpt lat="42.91318" lon="0.59269">
        <ele>1425</ele>
        <time>2018-04-19T07:35:16Z</time>
      </trkpt>
      <trkpt lat="42.91319" lon="0.59283">
        <ele>1428</ele>
        <time>2018-04-19T07:35:32Z</time>
      </trkpt>
      <trkpt lat="42.91318" lon="0.59302">
        <ele>1431</ele>
        <time>2018-04-19T07:35:51Z</time>
      </trkpt>
      <trkpt lat="42.91319" lon="0.59318">
        <ele>1433</ele>
        <time>2018-04-19T07:36:10Z</time>
      </trkpt>
      <trkpt lat="42.91324" lon="0.59339">
        <ele>1436</ele>
        <time>2018-04-19T07:36:28Z</time>
      </trkpt>
      <trkpt lat="42.91327" lon="0.59354">
        <ele>1439</ele>
        <time>2018-04-19T07:36:46Z</time>
      </trkpt>
      <trkpt lat="42.91327" lon="0.59367">
        <ele>1441</ele>
        <time>2018-04-19T07:37:02Z</time>
      </trkpt>
      <trkpt lat="42.91327" lon="0.59368">
        <ele>1442</ele>
        <time>2018-04-19T07:37:03Z</time>
      </trkpt>
      <trkpt lat="42.91328" lon="0.59384">
        <ele>1444</ele>
        <time>2018-04-19T07:37:19Z</time>
      </trkpt>
      <trkpt lat="42.91331" lon="0.594">
        <ele>1446</ele>
        <time>2018-04-19T07:37:36Z</time>
      </trkpt>
      <trkpt lat="42.91334" lon="0.59411">
        <ele>1449</ele>
        <time>2018-04-19T07:37:52Z</time>
      </trkpt>
      <trkpt lat="42.91333" lon="0.59412">
        <ele>1449</ele>
        <time>2018-04-19T07:37:54Z</time>
      </trkpt>
      <trkpt lat="42.91318" lon="0.59413">
        <ele>1451</ele>
        <time>2018-04-19T07:38:14Z</time>
      </trkpt>
      <trkpt lat="42.91305" lon="0.59405">
        <ele>1454</ele>
        <time>2018-04-19T07:38:33Z</time>
      </trkpt>
      <trkpt lat="42.91303" lon="0.59405">
        <ele>1454</ele>
        <time>2018-04-19T07:38:35Z</time>
      </trkpt>
      <trkpt lat="42.91296" lon="0.59404">
        <ele>1456</ele>
        <time>2018-04-19T07:38:55Z</time>
      </trkpt>
      <trkpt lat="42.91291" lon="0.59397">
        <ele>1457</ele>
        <time>2018-04-19T07:39:10Z</time>
      </trkpt>
      <trkpt lat="42.9128" lon="0.59387">
        <ele>1458</ele>
        <time>2018-04-19T07:39:26Z</time>
      </trkpt>
      <trkpt lat="42.9127" lon="0.59384">
        <ele>1459</ele>
        <time>2018-04-19T07:39:43Z</time>
      </trkpt>
      <trkpt lat="42.9126" lon="0.59377">
        <ele>1461</ele>
        <time>2018-04-19T07:39:54Z</time>
      </trkpt>
      <trkpt lat="42.91244" lon="0.5936">
        <ele>1463</ele>
        <time>2018-04-19T07:40:12Z</time>
      </trkpt>
      <trkpt lat="42.91242" lon="0.59355">
        <ele>1463</ele>
        <time>2018-04-19T07:40:16Z</time>
      </trkpt>
      <trkpt lat="42.91239" lon="0.59348">
        <ele>1464</ele>
        <time>2018-04-19T07:40:23Z</time>
      </trkpt>
      <trkpt lat="42.91235" lon="0.5934">
        <ele>1465</ele>
        <time>2018-04-19T07:40:30Z</time>
      </trkpt>
      <trkpt lat="42.91223" lon="0.59323">
        <ele>1466</ele>
        <time>2018-04-19T07:40:48Z</time>
      </trkpt>
      <trkpt lat="42.91212" lon="0.59305">
        <ele>1467</ele>
        <time>2018-04-19T07:41:06Z</time>
      </trkpt>
      <trkpt lat="42.91211" lon="0.59289">
        <ele>1469</ele>
        <time>2018-04-19T07:41:24Z</time>
      </trkpt>
      <trkpt lat="42.91209" lon="0.59283">
        <ele>1468</ele>
        <time>2018-04-19T07:41:28Z</time>
      </trkpt>
      <trkpt lat="42.91205" lon="0.5928">
        <ele>1468</ele>
        <time>2018-04-19T07:41:30Z</time>
      </trkpt>
      <trkpt lat="42.91193" lon="0.59263">
        <ele>1470</ele>
        <time>2018-04-19T07:41:45Z</time>
      </trkpt>
      <trkpt lat="42.91187" lon="0.5924">
        <ele>1470</ele>
        <time>2018-04-19T07:42:03Z</time>
      </trkpt>
      <trkpt lat="42.9118" lon="0.5922">
        <ele>1471</ele>
        <time>2018-04-19T07:42:18Z</time>
      </trkpt>
      <trkpt lat="42.91175" lon="0.59205">
        <ele>1473</ele>
        <time>2018-04-19T07:42:30Z</time>
      </trkpt>
      <trkpt lat="42.91168" lon="0.59189">
        <ele>1475</ele>
        <time>2018-04-19T07:42:45Z</time>
      </trkpt>
      <trkpt lat="42.91164" lon="0.59171">
        <ele>1477</ele>
        <time>2018-04-19T07:42:59Z</time>
      </trkpt>
      <trkpt lat="42.91163" lon="0.59169">
        <ele>1477</ele>
        <time>2018-04-19T07:43:00Z</time>
      </trkpt>
      <trkpt lat="42.91162" lon="0.59163">
        <ele>1477</ele>
        <time>2018-04-19T07:43:05Z</time>
      </trkpt>
      <trkpt lat="42.91156" lon="0.59142">
        <ele>1478</ele>
        <time>2018-04-19T07:43:23Z</time>
      </trkpt>
      <trkpt lat="42.91149" lon="0.59126">
        <ele>1479</ele>
        <time>2018-04-19T07:43:37Z</time>
      </trkpt>
      <trkpt lat="42.91148" lon="0.59112">
        <ele>1479</ele>
        <time>2018-04-19T07:43:59Z</time>
      </trkpt>
      <trkpt lat="42.91143" lon="0.59106">
        <ele>1478</ele>
        <time>2018-04-19T07:44:16Z</time>
      </trkpt>
      <trkpt lat="42.91143" lon="0.59088">
        <ele>1480</ele>
        <time>2018-04-19T07:44:36Z</time>
      </trkpt>
      <trkpt lat="42.91139" lon="0.59088">
        <ele>1476</ele>
        <time>2018-04-19T07:44:45Z</time>
      </trkpt>
      <trkpt lat="42.91138" lon="0.59088">
        <ele>1481</ele>
        <time>2018-04-19T07:44:47Z</time>
      </trkpt>
      <trkpt lat="42.91138" lon="0.59087">
        <ele>1480</ele>
        <time>2018-04-19T07:44:48Z</time>
      </trkpt>
      <trkpt lat="42.91137" lon="0.5908">
        <ele>1482</ele>
        <time>2018-04-19T07:45:07Z</time>
      </trkpt>
      <trkpt lat="42.91131" lon="0.59077">
        <ele>1482</ele>
        <time>2018-04-19T07:45:22Z</time>
      </trkpt>
      <trkpt lat="42.91128" lon="0.59069">
        <ele>1483</ele>
        <time>2018-04-19T07:45:29Z</time>
      </trkpt>
      <trkpt lat="42.91118" lon="0.59046">
        <ele>1484</ele>
        <time>2018-04-19T07:45:47Z</time>
      </trkpt>
      <trkpt lat="42.91102" lon="0.59025">
        <ele>1486</ele>
        <time>2018-04-19T07:46:03Z</time>
      </trkpt>
      <trkpt lat="42.91096" lon="0.59016">
        <ele>1487</ele>
        <time>2018-04-19T07:46:13Z</time>
      </trkpt>
      <trkpt lat="42.9108" lon="0.58995">
        <ele>1489</ele>
        <time>2018-04-19T07:46:34Z</time>
      </trkpt>
      <trkpt lat="42.91067" lon="0.58975">
        <ele>1491</ele>
        <time>2018-04-19T07:46:53Z</time>
      </trkpt>
      <trkpt lat="42.91054" lon="0.5896">
        <ele>1493</ele>
        <time>2018-04-19T07:47:10Z</time>
      </trkpt>
      <trkpt lat="42.91038" lon="0.58941">
        <ele>1494</ele>
        <time>2018-04-19T07:47:30Z</time>
      </trkpt>
      <trkpt lat="42.9102" lon="0.58919">
        <ele>1495</ele>
        <time>2018-04-19T07:47:51Z</time>
      </trkpt>
      <trkpt lat="42.91016" lon="0.58913">
        <ele>1496</ele>
        <time>2018-04-19T07:47:57Z</time>
      </trkpt>
      <trkpt lat="42.90997" lon="0.58897">
        <ele>1498</ele>
        <time>2018-04-19T07:48:17Z</time>
      </trkpt>
      <trkpt lat="42.90994" lon="0.58894">
        <ele>1498</ele>
        <time>2018-04-19T07:48:20Z</time>
      </trkpt>
      <trkpt lat="42.9098" lon="0.58882">
        <ele>1499</ele>
        <time>2018-04-19T07:48:36Z</time>
      </trkpt>
      <trkpt lat="42.90974" lon="0.58878">
        <ele>1500</ele>
        <time>2018-04-19T07:48:43Z</time>
      </trkpt>
      <trkpt lat="42.90973" lon="0.58878">
        <ele>1500</ele>
        <time>2018-04-19T07:48:44Z</time>
      </trkpt>
      <trkpt lat="42.90965" lon="0.58873">
        <ele>1500</ele>
        <time>2018-04-19T07:48:51Z</time>
      </trkpt>
      <trkpt lat="42.90944" lon="0.58867">
        <ele>1503</ele>
        <time>2018-04-19T07:49:11Z</time>
      </trkpt>
      <trkpt lat="42.90931" lon="0.58863">
        <ele>1505</ele>
        <time>2018-04-19T07:49:30Z</time>
      </trkpt>
      <trkpt lat="42.90912" lon="0.58864">
        <ele>1508</ele>
        <time>2018-04-19T07:49:51Z</time>
      </trkpt>
      <trkpt lat="42.90899" lon="0.58868">
        <ele>1510</ele>
        <time>2018-04-19T07:50:08Z</time>
      </trkpt>
      <trkpt lat="42.90898" lon="0.58868">
        <ele>1510</ele>
        <time>2018-04-19T07:50:10Z</time>
      </trkpt>
      <trkpt lat="42.90889" lon="0.5887">
        <ele>1511</ele>
        <time>2018-04-19T07:50:19Z</time>
      </trkpt>
      <trkpt lat="42.90885" lon="0.5887">
        <ele>1512</ele>
        <time>2018-04-19T07:50:23Z</time>
      </trkpt>
      <trkpt lat="42.90872" lon="0.58875">
        <ele>1513</ele>
        <time>2018-04-19T07:50:40Z</time>
      </trkpt>
      <trkpt lat="42.90857" lon="0.5888">
        <ele>1516</ele>
        <time>2018-04-19T07:50:58Z</time>
      </trkpt>
      <trkpt lat="42.90845" lon="0.58886">
        <ele>1517</ele>
        <time>2018-04-19T07:51:19Z</time>
      </trkpt>
      <trkpt lat="42.90824" lon="0.58882">
        <ele>1515</ele>
        <time>2018-04-19T07:51:40Z</time>
      </trkpt>
      <trkpt lat="42.90806" lon="0.58873">
        <ele>1513</ele>
        <time>2018-04-19T07:51:59Z</time>
      </trkpt>
      <trkpt lat="42.90795" lon="0.58865">
        <ele>1510</ele>
        <time>2018-04-19T07:52:15Z</time>
      </trkpt>
      <trkpt lat="42.90774" lon="0.58862">
        <ele>1510</ele>
        <time>2018-04-19T07:52:38Z</time>
      </trkpt>
      <trkpt lat="42.90769" lon="0.58862">
        <ele>1510</ele>
        <time>2018-04-19T07:52:45Z</time>
      </trkpt>
      <trkpt lat="42.90768" lon="0.58862">
        <ele>1511</ele>
        <time>2018-04-19T07:52:47Z</time>
      </trkpt>
      <trkpt lat="42.90764" lon="0.58863">
        <ele>1509</ele>
        <time>2018-04-19T07:52:51Z</time>
      </trkpt>
      <trkpt lat="42.9076" lon="0.58869">
        <ele>1510</ele>
        <time>2018-04-19T07:53:16Z</time>
      </trkpt>
      <trkpt lat="42.90767" lon="0.58871">
        <ele>1511</ele>
        <time>2018-04-19T07:53:59Z</time>
      </trkpt>
      <trkpt lat="42.9076" lon="0.58869">
        <ele>1511</ele>
        <time>2018-04-19T07:54:10Z</time>
      </trkpt>
      <trkpt lat="42.90755" lon="0.58872">
        <ele>1513</ele>
        <time>2018-04-19T07:54:16Z</time>
      </trkpt>
      <trkpt lat="42.90753" lon="0.58876">
        <ele>1514</ele>
        <time>2018-04-19T07:54:20Z</time>
      </trkpt>
      <trkpt lat="42.90753" lon="0.58877">
        <ele>1514</ele>
        <time>2018-04-19T07:54:21Z</time>
      </trkpt>
      <trkpt lat="42.90752" lon="0.58877">
        <ele>1512</ele>
        <time>2018-04-19T07:54:22Z</time>
      </trkpt>
      <trkpt lat="42.90744" lon="0.58891">
        <ele>1516</ele>
        <time>2018-04-19T07:54:39Z</time>
      </trkpt>
      <trkpt lat="42.90736" lon="0.58903">
        <ele>1517</ele>
        <time>2018-04-19T07:54:55Z</time>
      </trkpt>
      <trkpt lat="42.90733" lon="0.58912">
        <ele>1520</ele>
        <time>2018-04-19T07:55:06Z</time>
      </trkpt>
      <trkpt lat="42.90733" lon="0.58912">
        <ele>1520</ele>
        <time>2018-04-19T07:55:07Z</time>
      </trkpt>
      <trkpt lat="42.90732" lon="0.58913">
        <ele>1519</ele>
        <time>2018-04-19T07:55:09Z</time>
      </trkpt>
      <trkpt lat="42.90732" lon="0.58914">
        <ele>1521</ele>
        <time>2018-04-19T07:55:10Z</time>
      </trkpt>
      <trkpt lat="42.90724" lon="0.58926">
        <ele>1521</ele>
        <time>2018-04-19T07:55:26Z</time>
      </trkpt>
      <trkpt lat="42.90724" lon="0.58928">
        <ele>1522</ele>
        <time>2018-04-19T07:55:28Z</time>
      </trkpt>
      <trkpt lat="42.90721" lon="0.58931">
        <ele>1521</ele>
        <time>2018-04-19T07:55:33Z</time>
      </trkpt>
      <trkpt lat="42.90721" lon="0.58932">
        <ele>1522</ele>
        <time>2018-04-19T07:55:35Z</time>
      </trkpt>
      <trkpt lat="42.9072" lon="0.58934">
        <ele>1521</ele>
        <time>2018-04-19T07:55:37Z</time>
      </trkpt>
      <trkpt lat="42.9072" lon="0.58935">
        <ele>1524</ele>
        <time>2018-04-19T07:55:38Z</time>
      </trkpt>
      <trkpt lat="42.90716" lon="0.58947">
        <ele>1526</ele>
        <time>2018-04-19T07:55:54Z</time>
      </trkpt>
      <trkpt lat="42.90712" lon="0.58956">
        <ele>1525</ele>
        <time>2018-04-19T07:56:08Z</time>
      </trkpt>
      <trkpt lat="42.90712" lon="0.58958">
        <ele>1527</ele>
        <time>2018-04-19T07:56:11Z</time>
      </trkpt>
      <trkpt lat="42.90707" lon="0.5897">
        <ele>1525</ele>
        <time>2018-04-19T07:56:27Z</time>
      </trkpt>
      <trkpt lat="42.90706" lon="0.58971">
        <ele>1528</ele>
        <time>2018-04-19T07:56:29Z</time>
      </trkpt>
      <trkpt lat="42.90701" lon="0.58981">
        <ele>1530</ele>
        <time>2018-04-19T07:56:45Z</time>
      </trkpt>
      <trkpt lat="42.90698" lon="0.58987">
        <ele>1528</ele>
        <time>2018-04-19T07:56:54Z</time>
      </trkpt>
      <trkpt lat="42.90697" lon="0.58992">
        <ele>1527</ele>
        <time>2018-04-19T07:57:00Z</time>
      </trkpt>
      <trkpt lat="42.90697" lon="0.58993">
        <ele>1532</ele>
        <time>2018-04-19T07:57:01Z</time>
      </trkpt>
      <trkpt lat="42.90696" lon="0.58998">
        <ele>1532</ele>
        <time>2018-04-19T07:57:06Z</time>
      </trkpt>
      <trkpt lat="42.90694" lon="0.59001">
        <ele>1532</ele>
        <time>2018-04-19T07:57:12Z</time>
      </trkpt>
      <trkpt lat="42.90691" lon="0.59007">
        <ele>1532</ele>
        <time>2018-04-19T07:57:21Z</time>
      </trkpt>
      <trkpt lat="42.9069" lon="0.59013">
        <ele>1534</ele>
        <time>2018-04-19T07:57:29Z</time>
      </trkpt>
      <trkpt lat="42.90686" lon="0.59024">
        <ele>1536</ele>
        <time>2018-04-19T07:57:47Z</time>
      </trkpt>
      <trkpt lat="42.90685" lon="0.59029">
        <ele>1536</ele>
        <time>2018-04-19T07:57:55Z</time>
      </trkpt>
      <trkpt lat="42.90684" lon="0.59041">
        <ele>1536</ele>
        <time>2018-04-19T07:58:10Z</time>
      </trkpt>
      <trkpt lat="42.90684" lon="0.59041">
        <ele>1541</ele>
        <time>2018-04-19T07:58:11Z</time>
      </trkpt>
      <trkpt lat="42.90683" lon="0.59044">
        <ele>1538</ele>
        <time>2018-04-19T07:58:15Z</time>
      </trkpt>
      <trkpt lat="42.90683" lon="0.59049">
        <ele>1539</ele>
        <time>2018-04-19T07:58:21Z</time>
      </trkpt>
      <trkpt lat="42.90682" lon="0.59058">
        <ele>1541</ele>
        <time>2018-04-19T07:58:32Z</time>
      </trkpt>
      <trkpt lat="42.90682" lon="0.59059">
        <ele>1541</ele>
        <time>2018-04-19T07:58:33Z</time>
      </trkpt>
      <trkpt lat="42.90683" lon="0.59061">
        <ele>1539</ele>
        <time>2018-04-19T07:58:35Z</time>
      </trkpt>
      <trkpt lat="42.90683" lon="0.59061">
        <ele>1541</ele>
        <time>2018-04-19T07:58:37Z</time>
      </trkpt>
      <trkpt lat="42.90683" lon="0.59058">
        <ele>1541</ele>
        <time>2018-04-19T07:59:19Z</time>
      </trkpt>
      <trkpt lat="42.90682" lon="0.59069">
        <ele>1543</ele>
        <time>2018-04-19T07:59:40Z</time>
      </trkpt>
      <trkpt lat="42.90682" lon="0.59067">
        <ele>1539</ele>
        <time>2018-04-19T07:59:56Z</time>
      </trkpt>
      <trkpt lat="42.90682" lon="0.59066">
        <ele>1544</ele>
        <time>2018-04-19T07:59:57Z</time>
      </trkpt>
      <trkpt lat="42.90683" lon="0.5907">
        <ele>1544</ele>
        <time>2018-04-19T08:00:20Z</time>
      </trkpt>
      <trkpt lat="42.90684" lon="0.59076">
        <ele>1547</ele>
        <time>2018-04-19T08:00:28Z</time>
      </trkpt>
      <trkpt lat="42.90684" lon="0.59077">
        <ele>1544</ele>
        <time>2018-04-19T08:00:30Z</time>
      </trkpt>
      <trkpt lat="42.90685" lon="0.59078">
        <ele>1547</ele>
        <time>2018-04-19T08:00:32Z</time>
      </trkpt>
      <trkpt lat="42.90692" lon="0.59083">
        <ele>1550</ele>
        <time>2018-04-19T08:00:50Z</time>
      </trkpt>
      <trkpt lat="42.90694" lon="0.59091">
        <ele>1553</ele>
        <time>2018-04-19T08:01:04Z</time>
      </trkpt>
      <trkpt lat="42.90701" lon="0.59099">
        <ele>1554</ele>
        <time>2018-04-19T08:01:22Z</time>
      </trkpt>
      <trkpt lat="42.90708" lon="0.59099">
        <ele>1556</ele>
        <time>2018-04-19T08:01:40Z</time>
      </trkpt>
      <trkpt lat="42.9071" lon="0.59103">
        <ele>1557</ele>
        <time>2018-04-19T08:02:08Z</time>
      </trkpt>
      <trkpt lat="42.90711" lon="0.59106">
        <ele>1561</ele>
        <time>2018-04-19T08:02:12Z</time>
      </trkpt>
      <trkpt lat="42.90715" lon="0.59113">
        <ele>1561</ele>
        <time>2018-04-19T08:02:22Z</time>
      </trkpt>
      <trkpt lat="42.9072" lon="0.59115">
        <ele>1560</ele>
        <time>2018-04-19T08:02:43Z</time>
      </trkpt>
      <trkpt lat="42.90731" lon="0.59121">
        <ele>1562</ele>
        <time>2018-04-19T08:02:59Z</time>
      </trkpt>
      <trkpt lat="42.90733" lon="0.59121">
        <ele>1565</ele>
        <time>2018-04-19T08:03:04Z</time>
      </trkpt>
      <trkpt lat="42.9074" lon="0.59128">
        <ele>1566</ele>
        <time>2018-04-19T08:03:21Z</time>
      </trkpt>
      <trkpt lat="42.90742" lon="0.59129">
        <ele>1569</ele>
        <time>2018-04-19T08:03:25Z</time>
      </trkpt>
      <trkpt lat="42.90746" lon="0.59135">
        <ele>1571</ele>
        <time>2018-04-19T08:03:38Z</time>
      </trkpt>
      <trkpt lat="42.90747" lon="0.59139">
        <ele>1571</ele>
        <time>2018-04-19T08:03:44Z</time>
      </trkpt>
      <trkpt lat="42.90753" lon="0.59149">
        <ele>1575</ele>
        <time>2018-04-19T08:04:01Z</time>
      </trkpt>
      <trkpt lat="42.90758" lon="0.59159">
        <ele>1577</ele>
        <time>2018-04-19T08:04:18Z</time>
      </trkpt>
      <trkpt lat="42.90759" lon="0.59164">
        <ele>1578</ele>
        <time>2018-04-19T08:04:39Z</time>
      </trkpt>
      <trkpt lat="42.90766" lon="0.59172">
        <ele>1580</ele>
        <time>2018-04-19T08:05:01Z</time>
      </trkpt>
      <trkpt lat="42.90769" lon="0.59176">
        <ele>1580</ele>
        <time>2018-04-19T08:05:06Z</time>
      </trkpt>
      <trkpt lat="42.90772" lon="0.59179">
        <ele>1582</ele>
        <time>2018-04-19T08:05:11Z</time>
      </trkpt>
      <trkpt lat="42.90777" lon="0.59188">
        <ele>1582</ele>
        <time>2018-04-19T08:05:23Z</time>
      </trkpt>
      <trkpt lat="42.90786" lon="0.59197">
        <ele>1584</ele>
        <time>2018-04-19T08:05:36Z</time>
      </trkpt>
      <trkpt lat="42.90793" lon="0.59207">
        <ele>1588</ele>
        <time>2018-04-19T08:05:55Z</time>
      </trkpt>
      <trkpt lat="42.90799" lon="0.59215">
        <ele>1590</ele>
        <time>2018-04-19T08:06:10Z</time>
      </trkpt>
      <trkpt lat="42.90805" lon="0.59216">
        <ele>1594</ele>
        <time>2018-04-19T08:06:25Z</time>
      </trkpt>
      <trkpt lat="42.90806" lon="0.59216">
        <ele>1590</ele>
        <time>2018-04-19T08:06:26Z</time>
      </trkpt>
      <trkpt lat="42.90808" lon="0.59218">
        <ele>1593</ele>
        <time>2018-04-19T08:06:32Z</time>
      </trkpt>
      <trkpt lat="42.90814" lon="0.59219">
        <ele>1595</ele>
        <time>2018-04-19T08:06:46Z</time>
      </trkpt>
      <trkpt lat="42.90822" lon="0.59226">
        <ele>1596</ele>
        <time>2018-04-19T08:07:02Z</time>
      </trkpt>
      <trkpt lat="42.90837" lon="0.59223">
        <ele>1599</ele>
        <time>2018-04-19T08:07:18Z</time>
      </trkpt>
      <trkpt lat="42.90844" lon="0.59222">
        <ele>1599</ele>
        <time>2018-04-19T08:07:27Z</time>
      </trkpt>
      <trkpt lat="42.90847" lon="0.59223">
        <ele>1599</ele>
        <time>2018-04-19T08:07:31Z</time>
      </trkpt>
      <trkpt lat="42.9085" lon="0.59224">
        <ele>1600</ele>
        <time>2018-04-19T08:07:35Z</time>
      </trkpt>
      <trkpt lat="42.90854" lon="0.59223">
        <ele>1600</ele>
        <time>2018-04-19T08:07:39Z</time>
      </trkpt>
      <trkpt lat="42.90861" lon="0.59226">
        <ele>1600</ele>
        <time>2018-04-19T08:07:48Z</time>
      </trkpt>
      <trkpt lat="42.90864" lon="0.59227">
        <ele>1601</ele>
        <time>2018-04-19T08:07:52Z</time>
      </trkpt>
      <trkpt lat="42.90877" lon="0.59233">
        <ele>1601</ele>
        <time>2018-04-19T08:08:08Z</time>
      </trkpt>
      <trkpt lat="42.90876" lon="0.59235">
        <ele>1599</ele>
        <time>2018-04-19T08:08:29Z</time>
      </trkpt>
      <trkpt lat="42.90875" lon="0.59243">
        <ele>1603</ele>
        <time>2018-04-19T08:08:56Z</time>
      </trkpt>
      <trkpt lat="42.90875" lon="0.59241">
        <ele>1599</ele>
        <time>2018-04-19T08:09:01Z</time>
      </trkpt>
      <trkpt lat="42.90876" lon="0.59241">
        <ele>1599</ele>
        <time>2018-04-19T08:09:02Z</time>
      </trkpt>
      <trkpt lat="42.90877" lon="0.59239">
        <ele>1601</ele>
        <time>2018-04-19T08:09:04Z</time>
      </trkpt>
      <trkpt lat="42.90877" lon="0.59237">
        <ele>1603</ele>
        <time>2018-04-19T08:09:06Z</time>
      </trkpt>
      <trkpt lat="42.90876" lon="0.59237">
        <ele>1601</ele>
        <time>2018-04-19T08:09:44Z</time>
      </trkpt>
      <trkpt lat="42.90876" lon="0.59239">
        <ele>1602</ele>
        <time>2018-04-19T08:10:38Z</time>
      </trkpt>
      <trkpt lat="42.90875" lon="0.59239">
        <ele>1628</ele>
        <time>2018-04-19T08:11:23Z</time>
      </trkpt>
      <trkpt lat="42.90875" lon="0.59239">
        <ele>1628</ele>
        <time>2018-04-19T08:11:24Z</time>
      </trkpt>
      <trkpt lat="42.90875" lon="0.59239">
        <ele>1619</ele>
        <time>2018-04-19T08:11:27Z</time>
      </trkpt>
      <trkpt lat="42.90875" lon="0.59239">
        <ele>1620</ele>
        <time>2018-04-19T08:11:28Z</time>
      </trkpt>
      <trkpt lat="42.90874" lon="0.59229">
        <ele>1619</ele>
        <time>2018-04-19T08:12:09Z</time>
      </trkpt>
      <trkpt lat="42.90873" lon="0.59228">
        <ele>1619</ele>
        <time>2018-04-19T08:13:02Z</time>
      </trkpt>
      <trkpt lat="42.90873" lon="0.59223">
        <ele>1619</ele>
        <time>2018-04-19T08:13:56Z</time>
      </trkpt>
      <trkpt lat="42.90874" lon="0.59225">
        <ele>1619</ele>
        <time>2018-04-19T08:14:51Z</time>
      </trkpt>
      <trkpt lat="42.90878" lon="0.59229">
        <ele>1619</ele>
        <time>2018-04-19T08:15:51Z</time>
      </trkpt>
      <trkpt lat="42.90877" lon="0.59231">
        <ele>1619</ele>
        <time>2018-04-19T08:16:48Z</time>
      </trkpt>
      <trkpt lat="42.90878" lon="0.59235">
        <ele>1619</ele>
        <time>2018-04-19T08:17:44Z</time>
      </trkpt>
      <trkpt lat="42.90878" lon="0.59231">
        <ele>1618</ele>
        <time>2018-04-19T08:18:40Z</time>
      </trkpt>
      <trkpt lat="42.90878" lon="0.59238">
        <ele>1618</ele>
        <time>2018-04-19T08:19:36Z</time>
      </trkpt>
      <trkpt lat="42.90881" lon="0.59242">
        <ele>1619</ele>
        <time>2018-04-19T08:20:06Z</time>
      </trkpt>
      <trkpt lat="42.90885" lon="0.59244">
        <ele>1619</ele>
        <time>2018-04-19T08:20:21Z</time>
      </trkpt>
      <trkpt lat="42.90899" lon="0.59258">
        <ele>1616</ele>
        <time>2018-04-19T08:20:39Z</time>
      </trkpt>
      <trkpt lat="42.90916" lon="0.5927">
        <ele>1615</ele>
        <time>2018-04-19T08:20:58Z</time>
      </trkpt>
      <trkpt lat="42.90926" lon="0.59279">
        <ele>1614</ele>
        <time>2018-04-19T08:21:06Z</time>
      </trkpt>
      <trkpt lat="42.90931" lon="0.59283">
        <ele>1613</ele>
        <time>2018-04-19T08:21:16Z</time>
      </trkpt>
      <trkpt lat="42.90935" lon="0.59292">
        <ele>1610</ele>
        <time>2018-04-19T08:21:30Z</time>
      </trkpt>
      <trkpt lat="42.90945" lon="0.59296">
        <ele>1607</ele>
        <time>2018-04-19T08:21:52Z</time>
      </trkpt>
      <trkpt lat="42.90951" lon="0.59308">
        <ele>1605</ele>
        <time>2018-04-19T08:22:10Z</time>
      </trkpt>
      <trkpt lat="42.90956" lon="0.59326">
        <ele>1604</ele>
        <time>2018-04-19T08:22:27Z</time>
      </trkpt>
      <trkpt lat="42.90954" lon="0.59328">
        <ele>1603</ele>
        <time>2018-04-19T08:22:30Z</time>
      </trkpt>
      <trkpt lat="42.9095" lon="0.5933">
        <ele>1603</ele>
        <time>2018-04-19T08:22:49Z</time>
      </trkpt>
      <trkpt lat="42.90948" lon="0.59337">
        <ele>1601</ele>
        <time>2018-04-19T08:23:34Z</time>
      </trkpt>
      <trkpt lat="42.90967" lon="0.59358">
        <ele>1599</ele>
        <time>2018-04-19T08:23:54Z</time>
      </trkpt>
      <trkpt lat="42.90968" lon="0.59368">
        <ele>1598</ele>
        <time>2018-04-19T08:24:10Z</time>
      </trkpt>
      <trkpt lat="42.90972" lon="0.59377">
        <ele>1597</ele>
        <time>2018-04-19T08:24:20Z</time>
      </trkpt>
      <trkpt lat="42.90987" lon="0.59406">
        <ele>1596</ele>
        <time>2018-04-19T08:24:41Z</time>
      </trkpt>
      <trkpt lat="42.90991" lon="0.59415">
        <ele>1596</ele>
        <time>2018-04-19T08:24:46Z</time>
      </trkpt>
      <trkpt lat="42.91001" lon="0.59437">
        <ele>1594</ele>
        <time>2018-04-19T08:25:06Z</time>
      </trkpt>
      <trkpt lat="42.91007" lon="0.59459">
        <ele>1596</ele>
        <time>2018-04-19T08:25:26Z</time>
      </trkpt>
      <trkpt lat="42.91015" lon="0.59475">
        <ele>1594</ele>
        <time>2018-04-19T08:25:44Z</time>
      </trkpt>
      <trkpt lat="42.91016" lon="0.59491">
        <ele>1593</ele>
        <time>2018-04-19T08:25:56Z</time>
      </trkpt>
      <trkpt lat="42.91018" lon="0.595">
        <ele>1594</ele>
        <time>2018-04-19T08:26:12Z</time>
      </trkpt>
      <trkpt lat="42.91017" lon="0.59504">
        <ele>1597</ele>
        <time>2018-04-19T08:26:21Z</time>
      </trkpt>
      <trkpt lat="42.91017" lon="0.59505">
        <ele>1593</ele>
        <time>2018-04-19T08:26:22Z</time>
      </trkpt>
      <trkpt lat="42.91018" lon="0.59506">
        <ele>1596</ele>
        <time>2018-04-19T08:26:23Z</time>
      </trkpt>
      <trkpt lat="42.91018" lon="0.59509">
        <ele>1590</ele>
        <time>2018-04-19T08:26:31Z</time>
      </trkpt>
      <trkpt lat="42.91018" lon="0.5951">
        <ele>1594</ele>
        <time>2018-04-19T08:26:32Z</time>
      </trkpt>
      <trkpt lat="42.91019" lon="0.59509">
        <ele>1598</ele>
        <time>2018-04-19T08:26:33Z</time>
      </trkpt>
      <trkpt lat="42.91019" lon="0.5951">
        <ele>1594</ele>
        <time>2018-04-19T08:26:34Z</time>
      </trkpt>
      <trkpt lat="42.91019" lon="0.59512">
        <ele>1595</ele>
        <time>2018-04-19T08:26:38Z</time>
      </trkpt>
      <trkpt lat="42.91021" lon="0.59514">
        <ele>1591</ele>
        <time>2018-04-19T08:26:41Z</time>
      </trkpt>
      <trkpt lat="42.91021" lon="0.59514">
        <ele>1594</ele>
        <time>2018-04-19T08:26:42Z</time>
      </trkpt>
      <trkpt lat="42.91022" lon="0.59513">
        <ele>1601</ele>
        <time>2018-04-19T08:26:44Z</time>
      </trkpt>
      <trkpt lat="42.91022" lon="0.59513">
        <ele>1594</ele>
        <time>2018-04-19T08:26:45Z</time>
      </trkpt>
      <trkpt lat="42.91022" lon="0.59513">
        <ele>1599</ele>
        <time>2018-04-19T08:26:46Z</time>
      </trkpt>
      <trkpt lat="42.91022" lon="0.59513">
        <ele>1596</ele>
        <time>2018-04-19T08:26:47Z</time>
      </trkpt>
      <trkpt lat="42.9102" lon="0.59518">
        <ele>1601</ele>
        <time>2018-04-19T08:26:56Z</time>
      </trkpt>
      <trkpt lat="42.9102" lon="0.59519">
        <ele>1597</ele>
        <time>2018-04-19T08:26:57Z</time>
      </trkpt>
      <trkpt lat="42.91021" lon="0.59516">
        <ele>1598</ele>
        <time>2018-04-19T08:27:20Z</time>
      </trkpt>
      <trkpt lat="42.91021" lon="0.5952">
        <ele>1597</ele>
        <time>2018-04-19T08:27:55Z</time>
      </trkpt>
      <trkpt lat="42.91022" lon="0.59518">
        <ele>1594</ele>
        <time>2018-04-19T08:28:05Z</time>
      </trkpt>
      <trkpt lat="42.91022" lon="0.59519">
        <ele>1597</ele>
        <time>2018-04-19T08:28:06Z</time>
      </trkpt>
      <trkpt lat="42.91022" lon="0.59522">
        <ele>1594</ele>
        <time>2018-04-19T08:28:12Z</time>
      </trkpt>
      <trkpt lat="42.91022" lon="0.59526">
        <ele>1591</ele>
        <time>2018-04-19T08:28:27Z</time>
      </trkpt>
      <trkpt lat="42.91021" lon="0.59531">
        <ele>1587</ele>
        <time>2018-04-19T08:28:40Z</time>
      </trkpt>
      <trkpt lat="42.91021" lon="0.59531">
        <ele>1594</ele>
        <time>2018-04-19T08:28:41Z</time>
      </trkpt>
      <trkpt lat="42.91019" lon="0.59531">
        <ele>1589</ele>
        <time>2018-04-19T08:28:44Z</time>
      </trkpt>
      <trkpt lat="42.91018" lon="0.59534">
        <ele>1588</ele>
        <time>2018-04-19T08:28:49Z</time>
      </trkpt>
      <trkpt lat="42.91025" lon="0.59553">
        <ele>1586</ele>
        <time>2018-04-19T08:29:05Z</time>
      </trkpt>
      <trkpt lat="42.91031" lon="0.59574">
        <ele>1583</ele>
        <time>2018-04-19T08:29:25Z</time>
      </trkpt>
      <trkpt lat="42.91032" lon="0.59577">
        <ele>1584</ele>
        <time>2018-04-19T08:29:27Z</time>
      </trkpt>
      <trkpt lat="42.91037" lon="0.59593">
        <ele>1581</ele>
        <time>2018-04-19T08:29:40Z</time>
      </trkpt>
      <trkpt lat="42.91042" lon="0.59606">
        <ele>1578</ele>
        <time>2018-04-19T08:29:54Z</time>
      </trkpt>
      <trkpt lat="42.91041" lon="0.59627">
        <ele>1574</ele>
        <time>2018-04-19T08:30:10Z</time>
      </trkpt>
      <trkpt lat="42.91046" lon="0.59641">
        <ele>1571</ele>
        <time>2018-04-19T08:30:23Z</time>
      </trkpt>
      <trkpt lat="42.91055" lon="0.59635">
        <ele>1568</ele>
        <time>2018-04-19T08:30:34Z</time>
      </trkpt>
      <trkpt lat="42.91063" lon="0.59637">
        <ele>1565</ele>
        <time>2018-04-19T08:30:43Z</time>
      </trkpt>
      <trkpt lat="42.9107" lon="0.59643">
        <ele>1561</ele>
        <time>2018-04-19T08:30:55Z</time>
      </trkpt>
      <trkpt lat="42.91077" lon="0.59643">
        <ele>1558</ele>
        <time>2018-04-19T08:31:05Z</time>
      </trkpt>
      <trkpt lat="42.91083" lon="0.59642">
        <ele>1556</ele>
        <time>2018-04-19T08:31:11Z</time>
      </trkpt>
      <trkpt lat="42.91102" lon="0.59636">
        <ele>1553</ele>
        <time>2018-04-19T08:31:27Z</time>
      </trkpt>
      <trkpt lat="42.91107" lon="0.59637">
        <ele>1551</ele>
        <time>2018-04-19T08:31:35Z</time>
      </trkpt>
      <trkpt lat="42.91119" lon="0.59641">
        <ele>1547</ele>
        <time>2018-04-19T08:31:46Z</time>
      </trkpt>
      <trkpt lat="42.91133" lon="0.5964">
        <ele>1544</ele>
        <time>2018-04-19T08:31:57Z</time>
      </trkpt>
      <trkpt lat="42.91138" lon="0.59636">
        <ele>1541</ele>
        <time>2018-04-19T08:32:08Z</time>
      </trkpt>
      <trkpt lat="42.91149" lon="0.5964">
        <ele>1538</ele>
        <time>2018-04-19T08:32:21Z</time>
      </trkpt>
      <trkpt lat="42.91161" lon="0.59646">
        <ele>1535</ele>
        <time>2018-04-19T08:32:35Z</time>
      </trkpt>
      <trkpt lat="42.91164" lon="0.5965">
        <ele>1534</ele>
        <time>2018-04-19T08:32:39Z</time>
      </trkpt>
      <trkpt lat="42.91163" lon="0.59659">
        <ele>1532</ele>
        <time>2018-04-19T08:33:04Z</time>
      </trkpt>
      <trkpt lat="42.91167" lon="0.5966">
        <ele>1531</ele>
        <time>2018-04-19T08:33:08Z</time>
      </trkpt>
      <trkpt lat="42.9117" lon="0.59662">
        <ele>1530</ele>
        <time>2018-04-19T08:33:11Z</time>
      </trkpt>
      <trkpt lat="42.91178" lon="0.59665">
        <ele>1526</ele>
        <time>2018-04-19T08:33:21Z</time>
      </trkpt>
      <trkpt lat="42.91181" lon="0.59664">
        <ele>1525</ele>
        <time>2018-04-19T08:33:23Z</time>
      </trkpt>
      <trkpt lat="42.91188" lon="0.59668">
        <ele>1523</ele>
        <time>2018-04-19T08:33:34Z</time>
      </trkpt>
      <trkpt lat="42.91192" lon="0.59667">
        <ele>1522</ele>
        <time>2018-04-19T08:33:38Z</time>
      </trkpt>
      <trkpt lat="42.91204" lon="0.59679">
        <ele>1519</ele>
        <time>2018-04-19T08:33:56Z</time>
      </trkpt>
      <trkpt lat="42.91221" lon="0.59694">
        <ele>1516</ele>
        <time>2018-04-19T08:34:14Z</time>
      </trkpt>
      <trkpt lat="42.91222" lon="0.59695">
        <ele>1515</ele>
        <time>2018-04-19T08:34:15Z</time>
      </trkpt>
      <trkpt lat="42.91236" lon="0.5971">
        <ele>1512</ele>
        <time>2018-04-19T08:34:29Z</time>
      </trkpt>
      <trkpt lat="42.91258" lon="0.59728">
        <ele>1510</ele>
        <time>2018-04-19T08:34:51Z</time>
      </trkpt>
      <trkpt lat="42.91285" lon="0.59738">
        <ele>1510</ele>
        <time>2018-04-19T08:35:14Z</time>
      </trkpt>
      <trkpt lat="42.9129" lon="0.59741">
        <ele>1510</ele>
        <time>2018-04-19T08:35:19Z</time>
      </trkpt>
      <trkpt lat="42.91295" lon="0.59743">
        <ele>1512</ele>
        <time>2018-04-19T08:35:24Z</time>
      </trkpt>
      <trkpt lat="42.91301" lon="0.59747">
        <ele>1511</ele>
        <time>2018-04-19T08:35:33Z</time>
      </trkpt>
      <trkpt lat="42.9131" lon="0.59755">
        <ele>1514</ele>
        <time>2018-04-19T08:35:46Z</time>
      </trkpt>
      <trkpt lat="42.91314" lon="0.59759">
        <ele>1515</ele>
        <time>2018-04-19T08:35:52Z</time>
      </trkpt>
      <trkpt lat="42.91324" lon="0.59768">
        <ele>1515</ele>
        <time>2018-04-19T08:36:05Z</time>
      </trkpt>
      <trkpt lat="42.91325" lon="0.59768">
        <ele>1515</ele>
        <time>2018-04-19T08:36:06Z</time>
      </trkpt>
      <trkpt lat="42.91333" lon="0.59773">
        <ele>1514</ele>
        <time>2018-04-19T08:36:17Z</time>
      </trkpt>
      <trkpt lat="42.91337" lon="0.59776">
        <ele>1515</ele>
        <time>2018-04-19T08:36:22Z</time>
      </trkpt>
      <trkpt lat="42.91339" lon="0.59778">
        <ele>1516</ele>
        <time>2018-04-19T08:36:25Z</time>
      </trkpt>
      <trkpt lat="42.91353" lon="0.59782">
        <ele>1519</ele>
        <time>2018-04-19T08:36:41Z</time>
      </trkpt>
      <trkpt lat="42.91364" lon="0.59786">
        <ele>1520</ele>
        <time>2018-04-19T08:36:58Z</time>
      </trkpt>
      <trkpt lat="42.91372" lon="0.59788">
        <ele>1519</ele>
        <time>2018-04-19T08:37:10Z</time>
      </trkpt>
      <trkpt lat="42.91377" lon="0.59789">
        <ele>1519</ele>
        <time>2018-04-19T08:37:16Z</time>
      </trkpt>
      <trkpt lat="42.91384" lon="0.5979">
        <ele>1522</ele>
        <time>2018-04-19T08:37:26Z</time>
      </trkpt>
      <trkpt lat="42.9139" lon="0.59791">
        <ele>1524</ele>
        <time>2018-04-19T08:37:34Z</time>
      </trkpt>
      <trkpt lat="42.91399" lon="0.59792">
        <ele>1523</ele>
        <time>2018-04-19T08:37:49Z</time>
      </trkpt>
      <trkpt lat="42.91399" lon="0.59792">
        <ele>1525</ele>
        <time>2018-04-19T08:37:50Z</time>
      </trkpt>
      <trkpt lat="42.914" lon="0.59792">
        <ele>1523</ele>
        <time>2018-04-19T08:37:52Z</time>
      </trkpt>
      <trkpt lat="42.91401" lon="0.59792">
        <ele>1527</ele>
        <time>2018-04-19T08:37:53Z</time>
      </trkpt>
      <trkpt lat="42.91403" lon="0.59792">
        <ele>1524</ele>
        <time>2018-04-19T08:37:56Z</time>
      </trkpt>
      <trkpt lat="42.91412" lon="0.59792">
        <ele>1528</ele>
        <time>2018-04-19T08:38:12Z</time>
      </trkpt>
      <trkpt lat="42.91414" lon="0.59792">
        <ele>1525</ele>
        <time>2018-04-19T08:38:15Z</time>
      </trkpt>
      <trkpt lat="42.91414" lon="0.59792">
        <ele>1530</ele>
        <time>2018-04-19T08:38:16Z</time>
      </trkpt>
      <trkpt lat="42.91421" lon="0.59794">
        <ele>1531</ele>
        <time>2018-04-19T08:38:31Z</time>
      </trkpt>
      <trkpt lat="42.91428" lon="0.59794">
        <ele>1533</ele>
        <time>2018-04-19T08:38:45Z</time>
      </trkpt>
      <trkpt lat="42.91435" lon="0.59794">
        <ele>1533</ele>
        <time>2018-04-19T08:39:00Z</time>
      </trkpt>
      <trkpt lat="42.91441" lon="0.59794">
        <ele>1535</ele>
        <time>2018-04-19T08:39:13Z</time>
      </trkpt>
      <trkpt lat="42.91448" lon="0.59792">
        <ele>1537</ele>
        <time>2018-04-19T08:39:27Z</time>
      </trkpt>
      <trkpt lat="42.91456" lon="0.59793">
        <ele>1539</ele>
        <time>2018-04-19T08:39:41Z</time>
      </trkpt>
      <trkpt lat="42.91464" lon="0.59795">
        <ele>1538</ele>
        <time>2018-04-19T08:39:57Z</time>
      </trkpt>
      <trkpt lat="42.91465" lon="0.59795">
        <ele>1541</ele>
        <time>2018-04-19T08:40:00Z</time>
      </trkpt>
      <trkpt lat="42.91473" lon="0.59794">
        <ele>1541</ele>
        <time>2018-04-19T08:40:15Z</time>
      </trkpt>
      <trkpt lat="42.91476" lon="0.59793">
        <ele>1544</ele>
        <time>2018-04-19T08:40:25Z</time>
      </trkpt>
      <trkpt lat="42.91482" lon="0.59793">
        <ele>1547</ele>
        <time>2018-04-19T08:40:40Z</time>
      </trkpt>
      <trkpt lat="42.91483" lon="0.59793">
        <ele>1544</ele>
        <time>2018-04-19T08:40:41Z</time>
      </trkpt>
      <trkpt lat="42.91485" lon="0.59793">
        <ele>1547</ele>
        <time>2018-04-19T08:40:47Z</time>
      </trkpt>
      <trkpt lat="42.91486" lon="0.59793">
        <ele>1544</ele>
        <time>2018-04-19T08:40:51Z</time>
      </trkpt>
      <trkpt lat="42.91487" lon="0.59792">
        <ele>1548</ele>
        <time>2018-04-19T08:40:54Z</time>
      </trkpt>
      <trkpt lat="42.91494" lon="0.59791">
        <ele>1550</ele>
        <time>2018-04-19T08:41:09Z</time>
      </trkpt>
      <trkpt lat="42.91494" lon="0.59791">
        <ele>1546</ele>
        <time>2018-04-19T08:41:10Z</time>
      </trkpt>
      <trkpt lat="42.91495" lon="0.59791">
        <ele>1550</ele>
        <time>2018-04-19T08:41:11Z</time>
      </trkpt>
      <trkpt lat="42.91497" lon="0.59791">
        <ele>1546</ele>
        <time>2018-04-19T08:41:15Z</time>
      </trkpt>
      <trkpt lat="42.91497" lon="0.59791">
        <ele>1551</ele>
        <time>2018-04-19T08:41:16Z</time>
      </trkpt>
      <trkpt lat="42.91502" lon="0.59792">
        <ele>1550</ele>
        <time>2018-04-19T08:41:31Z</time>
      </trkpt>
      <trkpt lat="42.91502" lon="0.59792">
        <ele>1553</ele>
        <time>2018-04-19T08:41:32Z</time>
      </trkpt>
      <trkpt lat="42.91504" lon="0.59792">
        <ele>1550</ele>
        <time>2018-04-19T08:41:36Z</time>
      </trkpt>
      <trkpt lat="42.91504" lon="0.59791">
        <ele>1554</ele>
        <time>2018-04-19T08:41:37Z</time>
      </trkpt>
      <trkpt lat="42.91506" lon="0.59791">
        <ele>1550</ele>
        <time>2018-04-19T08:41:42Z</time>
      </trkpt>
      <trkpt lat="42.91507" lon="0.59791">
        <ele>1555</ele>
        <time>2018-04-19T08:41:43Z</time>
      </trkpt>
      <trkpt lat="42.91509" lon="0.59788">
        <ele>1554</ele>
        <time>2018-04-19T08:42:01Z</time>
      </trkpt>
      <trkpt lat="42.91516" lon="0.59791">
        <ele>1556</ele>
        <time>2018-04-19T08:42:33Z</time>
      </trkpt>
      <trkpt lat="42.91522" lon="0.59791">
        <ele>1559</ele>
        <time>2018-04-19T08:42:49Z</time>
      </trkpt>
      <trkpt lat="42.91523" lon="0.59791">
        <ele>1556</ele>
        <time>2018-04-19T08:42:53Z</time>
      </trkpt>
      <trkpt lat="42.91523" lon="0.59791">
        <ele>1560</ele>
        <time>2018-04-19T08:42:54Z</time>
      </trkpt>
      <trkpt lat="42.91524" lon="0.59791">
        <ele>1556</ele>
        <time>2018-04-19T08:42:55Z</time>
      </trkpt>
      <trkpt lat="42.91525" lon="0.59791">
        <ele>1559</ele>
        <time>2018-04-19T08:42:58Z</time>
      </trkpt>
      <trkpt lat="42.91531" lon="0.59789">
        <ele>1556</ele>
        <time>2018-04-19T08:43:12Z</time>
      </trkpt>
      <trkpt lat="42.91531" lon="0.59789">
        <ele>1562</ele>
        <time>2018-04-19T08:43:13Z</time>
      </trkpt>
      <trkpt lat="42.91532" lon="0.59789">
        <ele>1557</ele>
        <time>2018-04-19T08:43:14Z</time>
      </trkpt>
      <trkpt lat="42.91532" lon="0.59789">
        <ele>1561</ele>
        <time>2018-04-19T08:43:15Z</time>
      </trkpt>
      <trkpt lat="42.91538" lon="0.59791">
        <ele>1560</ele>
        <time>2018-04-19T08:43:32Z</time>
      </trkpt>
      <trkpt lat="42.91538" lon="0.5979">
        <ele>1566</ele>
        <time>2018-04-19T08:43:33Z</time>
      </trkpt>
      <trkpt lat="42.91538" lon="0.5979">
        <ele>1561</ele>
        <time>2018-04-19T08:43:34Z</time>
      </trkpt>
      <trkpt lat="42.91538" lon="0.5979">
        <ele>1565</ele>
        <time>2018-04-19T08:43:35Z</time>
      </trkpt>
      <trkpt lat="42.91539" lon="0.5979">
        <ele>1561</ele>
        <time>2018-04-19T08:43:36Z</time>
      </trkpt>
      <trkpt lat="42.91539" lon="0.5979">
        <ele>1565</ele>
        <time>2018-04-19T08:43:37Z</time>
      </trkpt>
      <trkpt lat="42.91544" lon="0.59792">
        <ele>1563</ele>
        <time>2018-04-19T08:43:52Z</time>
      </trkpt>
      <trkpt lat="42.91545" lon="0.59793">
        <ele>1567</ele>
        <time>2018-04-19T08:43:56Z</time>
      </trkpt>
      <trkpt lat="42.91549" lon="0.59797">
        <ele>1564</ele>
        <time>2018-04-19T08:44:08Z</time>
      </trkpt>
      <trkpt lat="42.91549" lon="0.59797">
        <ele>1569</ele>
        <time>2018-04-19T08:44:09Z</time>
      </trkpt>
      <trkpt lat="42.9155" lon="0.59798">
        <ele>1566</ele>
        <time>2018-04-19T08:44:12Z</time>
      </trkpt>
      <trkpt lat="42.91551" lon="0.59798">
        <ele>1569</ele>
        <time>2018-04-19T08:44:13Z</time>
      </trkpt>
      <trkpt lat="42.91551" lon="0.59797">
        <ele>1566</ele>
        <time>2018-04-19T08:44:14Z</time>
      </trkpt>
      <trkpt lat="42.91551" lon="0.59798">
        <ele>1569</ele>
        <time>2018-04-19T08:44:15Z</time>
      </trkpt>
      <trkpt lat="42.91552" lon="0.59798">
        <ele>1565</ele>
        <time>2018-04-19T08:44:16Z</time>
      </trkpt>
      <trkpt lat="42.91552" lon="0.59798">
        <ele>1571</ele>
        <time>2018-04-19T08:44:17Z</time>
      </trkpt>
      <trkpt lat="42.91552" lon="0.59798">
        <ele>1568</ele>
        <time>2018-04-19T08:44:18Z</time>
      </trkpt>
      <trkpt lat="42.91553" lon="0.59799">
        <ele>1571</ele>
        <time>2018-04-19T08:44:24Z</time>
      </trkpt>
      <trkpt lat="42.91554" lon="0.59799">
        <ele>1568</ele>
        <time>2018-04-19T08:44:25Z</time>
      </trkpt>
      <trkpt lat="42.91555" lon="0.59797">
        <ele>1572</ele>
        <time>2018-04-19T08:44:30Z</time>
      </trkpt>
      <trkpt lat="42.91555" lon="0.59798">
        <ele>1572</ele>
        <time>2018-04-19T08:44:31Z</time>
      </trkpt>
      <trkpt lat="42.91556" lon="0.59797">
        <ele>1567</ele>
        <time>2018-04-19T08:44:32Z</time>
      </trkpt>
      <trkpt lat="42.91556" lon="0.59797">
        <ele>1574</ele>
        <time>2018-04-19T08:44:33Z</time>
      </trkpt>
      <trkpt lat="42.91556" lon="0.59797">
        <ele>1568</ele>
        <time>2018-04-19T08:44:34Z</time>
      </trkpt>
      <trkpt lat="42.91557" lon="0.59797">
        <ele>1570</ele>
        <time>2018-04-19T08:44:37Z</time>
      </trkpt>
      <trkpt lat="42.91561" lon="0.59798">
        <ele>1574</ele>
        <time>2018-04-19T08:44:48Z</time>
      </trkpt>
      <trkpt lat="42.91561" lon="0.59798">
        <ele>1570</ele>
        <time>2018-04-19T08:44:49Z</time>
      </trkpt>
      <trkpt lat="42.91563" lon="0.59799">
        <ele>1573</ele>
        <time>2018-04-19T08:44:53Z</time>
      </trkpt>
      <trkpt lat="42.91566" lon="0.598">
        <ele>1574</ele>
        <time>2018-04-19T08:45:04Z</time>
      </trkpt>
      <trkpt lat="42.91572" lon="0.598">
        <ele>1579</ele>
        <time>2018-04-19T08:45:17Z</time>
      </trkpt>
      <trkpt lat="42.91572" lon="0.598">
        <ele>1574</ele>
        <time>2018-04-19T08:45:18Z</time>
      </trkpt>
      <trkpt lat="42.91573" lon="0.598">
        <ele>1577</ele>
        <time>2018-04-19T08:45:20Z</time>
      </trkpt>
      <trkpt lat="42.91575" lon="0.598">
        <ele>1577</ele>
        <time>2018-04-19T08:45:44Z</time>
      </trkpt>
      <trkpt lat="42.91574" lon="0.59801">
        <ele>1577</ele>
        <time>2018-04-19T08:46:23Z</time>
      </trkpt>
      <trkpt lat="42.91573" lon="0.59801">
        <ele>1580</ele>
        <time>2018-04-19T08:46:43Z</time>
      </trkpt>
      <trkpt lat="42.91573" lon="0.59802">
        <ele>1575</ele>
        <time>2018-04-19T08:46:44Z</time>
      </trkpt>
      <trkpt lat="42.91573" lon="0.59802">
        <ele>1579</ele>
        <time>2018-04-19T08:46:45Z</time>
      </trkpt>
      <trkpt lat="42.91575" lon="0.59802">
        <ele>1576</ele>
        <time>2018-04-19T08:46:52Z</time>
      </trkpt>
      <trkpt lat="42.91576" lon="0.59802">
        <ele>1579</ele>
        <time>2018-04-19T08:46:54Z</time>
      </trkpt>
      <trkpt lat="42.91584" lon="0.59805">
        <ele>1582</ele>
        <time>2018-04-19T08:47:13Z</time>
      </trkpt>
      <trkpt lat="42.91585" lon="0.59806">
        <ele>1578</ele>
        <time>2018-04-19T08:47:14Z</time>
      </trkpt>
      <trkpt lat="42.91585" lon="0.59806">
        <ele>1583</ele>
        <time>2018-04-19T08:47:15Z</time>
      </trkpt>
      <trkpt lat="42.91587" lon="0.59807">
        <ele>1579</ele>
        <time>2018-04-19T08:47:21Z</time>
      </trkpt>
      <trkpt lat="42.91587" lon="0.59807">
        <ele>1585</ele>
        <time>2018-04-19T08:47:22Z</time>
      </trkpt>
      <trkpt lat="42.91587" lon="0.59807">
        <ele>1581</ele>
        <time>2018-04-19T08:47:23Z</time>
      </trkpt>
      <trkpt lat="42.9159" lon="0.59807">
        <ele>1584</ele>
        <time>2018-04-19T08:47:31Z</time>
      </trkpt>
      <trkpt lat="42.91591" lon="0.59807">
        <ele>1581</ele>
        <time>2018-04-19T08:47:32Z</time>
      </trkpt>
      <trkpt lat="42.91591" lon="0.59808">
        <ele>1585</ele>
        <time>2018-04-19T08:47:33Z</time>
      </trkpt>
      <trkpt lat="42.91592" lon="0.59807">
        <ele>1581</ele>
        <time>2018-04-19T08:47:34Z</time>
      </trkpt>
      <trkpt lat="42.91592" lon="0.59807">
        <ele>1584</ele>
        <time>2018-04-19T08:47:35Z</time>
      </trkpt>
      <trkpt lat="42.91596" lon="0.59808">
        <ele>1585</ele>
        <time>2018-04-19T08:47:45Z</time>
      </trkpt>
      <trkpt lat="42.91601" lon="0.59809">
        <ele>1585</ele>
        <time>2018-04-19T08:47:59Z</time>
      </trkpt>
      <trkpt lat="42.91602" lon="0.59809">
        <ele>1588</ele>
        <time>2018-04-19T08:48:00Z</time>
      </trkpt>
      <trkpt lat="42.91602" lon="0.59809">
        <ele>1584</ele>
        <time>2018-04-19T08:48:01Z</time>
      </trkpt>
      <trkpt lat="42.91602" lon="0.5981">
        <ele>1588</ele>
        <time>2018-04-19T08:48:02Z</time>
      </trkpt>
      <trkpt lat="42.91602" lon="0.5981">
        <ele>1584</ele>
        <time>2018-04-19T08:48:03Z</time>
      </trkpt>
      <trkpt lat="42.91602" lon="0.5981">
        <ele>1588</ele>
        <time>2018-04-19T08:48:04Z</time>
      </trkpt>
      <trkpt lat="42.91604" lon="0.5981">
        <ele>1584</ele>
        <time>2018-04-19T08:48:08Z</time>
      </trkpt>
      <trkpt lat="42.91604" lon="0.5981">
        <ele>1590</ele>
        <time>2018-04-19T08:48:09Z</time>
      </trkpt>
      <trkpt lat="42.91604" lon="0.5981">
        <ele>1586</ele>
        <time>2018-04-19T08:48:10Z</time>
      </trkpt>
      <trkpt lat="42.91605" lon="0.59811">
        <ele>1591</ele>
        <time>2018-04-19T08:48:14Z</time>
      </trkpt>
      <trkpt lat="42.91606" lon="0.59811">
        <ele>1585</ele>
        <time>2018-04-19T08:48:15Z</time>
      </trkpt>
      <trkpt lat="42.91606" lon="0.59811">
        <ele>1593</ele>
        <time>2018-04-19T08:48:16Z</time>
      </trkpt>
      <trkpt lat="42.91606" lon="0.5981">
        <ele>1587</ele>
        <time>2018-04-19T08:48:17Z</time>
      </trkpt>
      <trkpt lat="42.91607" lon="0.59811">
        <ele>1591</ele>
        <time>2018-04-19T08:48:20Z</time>
      </trkpt>
      <trkpt lat="42.91608" lon="0.59811">
        <ele>1586</ele>
        <time>2018-04-19T08:48:21Z</time>
      </trkpt>
      <trkpt lat="42.91608" lon="0.59811">
        <ele>1592</ele>
        <time>2018-04-19T08:48:22Z</time>
      </trkpt>
      <trkpt lat="42.91608" lon="0.59812">
        <ele>1583</ele>
        <time>2018-04-19T08:48:23Z</time>
      </trkpt>
      <trkpt lat="42.91608" lon="0.59812">
        <ele>1595</ele>
        <time>2018-04-19T08:48:24Z</time>
      </trkpt>
      <trkpt lat="42.91608" lon="0.59812">
        <ele>1589</ele>
        <time>2018-04-19T08:48:25Z</time>
      </trkpt>
      <trkpt lat="42.91612" lon="0.59813">
        <ele>1593</ele>
        <time>2018-04-19T08:48:33Z</time>
      </trkpt>
      <trkpt lat="42.91612" lon="0.59813">
        <ele>1588</ele>
        <time>2018-04-19T08:48:34Z</time>
      </trkpt>
      <trkpt lat="42.91613" lon="0.59813">
        <ele>1594</ele>
        <time>2018-04-19T08:48:35Z</time>
      </trkpt>
      <trkpt lat="42.91614" lon="0.59814">
        <ele>1590</ele>
        <time>2018-04-19T08:48:39Z</time>
      </trkpt>
      <trkpt lat="42.91615" lon="0.59817">
        <ele>1594</ele>
        <time>2018-04-19T08:48:45Z</time>
      </trkpt>
      <trkpt lat="42.9162" lon="0.59822">
        <ele>1592</ele>
        <time>2018-04-19T08:49:01Z</time>
      </trkpt>
      <trkpt lat="42.9162" lon="0.59823">
        <ele>1596</ele>
        <time>2018-04-19T08:49:02Z</time>
      </trkpt>
      <trkpt lat="42.91621" lon="0.59823">
        <ele>1593</ele>
        <time>2018-04-19T08:49:03Z</time>
      </trkpt>
      <trkpt lat="42.91622" lon="0.59823">
        <ele>1596</ele>
        <time>2018-04-19T08:49:07Z</time>
      </trkpt>
      <trkpt lat="42.91622" lon="0.59824">
        <ele>1592</ele>
        <time>2018-04-19T08:49:10Z</time>
      </trkpt>
      <trkpt lat="42.91623" lon="0.59824">
        <ele>1597</ele>
        <time>2018-04-19T08:49:12Z</time>
      </trkpt>
      <trkpt lat="42.91624" lon="0.59824">
        <ele>1596</ele>
        <time>2018-04-19T08:49:13Z</time>
      </trkpt>
      <trkpt lat="42.91628" lon="0.59832">
        <ele>1597</ele>
        <time>2018-04-19T08:49:28Z</time>
      </trkpt>
      <trkpt lat="42.91629" lon="0.59834">
        <ele>1600</ele>
        <time>2018-04-19T08:49:33Z</time>
      </trkpt>
      <trkpt lat="42.91629" lon="0.59834">
        <ele>1596</ele>
        <time>2018-04-19T08:49:34Z</time>
      </trkpt>
      <trkpt lat="42.91629" lon="0.59834">
        <ele>1599</ele>
        <time>2018-04-19T08:49:35Z</time>
      </trkpt>
      <trkpt lat="42.91635" lon="0.5984">
        <ele>1603</ele>
        <time>2018-04-19T08:49:53Z</time>
      </trkpt>
      <trkpt lat="42.91635" lon="0.5984">
        <ele>1599</ele>
        <time>2018-04-19T08:49:54Z</time>
      </trkpt>
      <trkpt lat="42.91636" lon="0.59839">
        <ele>1603</ele>
        <time>2018-04-19T08:49:55Z</time>
      </trkpt>
      <trkpt lat="42.91636" lon="0.59838">
        <ele>1599</ele>
        <time>2018-04-19T08:49:56Z</time>
      </trkpt>
      <trkpt lat="42.91636" lon="0.59838">
        <ele>1604</ele>
        <time>2018-04-19T08:49:57Z</time>
      </trkpt>
      <trkpt lat="42.91637" lon="0.59838">
        <ele>1599</ele>
        <time>2018-04-19T08:49:59Z</time>
      </trkpt>
      <trkpt lat="42.91637" lon="0.59838">
        <ele>1603</ele>
        <time>2018-04-19T08:50:00Z</time>
      </trkpt>
      <trkpt lat="42.91638" lon="0.5984">
        <ele>1599</ele>
        <time>2018-04-19T08:50:05Z</time>
      </trkpt>
      <trkpt lat="42.91638" lon="0.5984">
        <ele>1604</ele>
        <time>2018-04-19T08:50:06Z</time>
      </trkpt>
      <trkpt lat="42.91639" lon="0.5984">
        <ele>1599</ele>
        <time>2018-04-19T08:50:07Z</time>
      </trkpt>
      <trkpt lat="42.91639" lon="0.5984">
        <ele>1604</ele>
        <time>2018-04-19T08:50:08Z</time>
      </trkpt>
      <trkpt lat="42.91642" lon="0.59844">
        <ele>1604</ele>
        <time>2018-04-19T08:50:25Z</time>
      </trkpt>
      <trkpt lat="42.91642" lon="0.59844">
        <ele>1604</ele>
        <time>2018-04-19T08:50:43Z</time>
      </trkpt>
      <trkpt lat="42.9164" lon="0.59844">
        <ele>1604</ele>
        <time>2018-04-19T08:51:12Z</time>
      </trkpt>
      <trkpt lat="42.9164" lon="0.59844">
        <ele>1601</ele>
        <time>2018-04-19T08:51:16Z</time>
      </trkpt>
      <trkpt lat="42.9164" lon="0.59845">
        <ele>1605</ele>
        <time>2018-04-19T08:51:17Z</time>
      </trkpt>
      <trkpt lat="42.9164" lon="0.59844">
        <ele>1604</ele>
        <time>2018-04-19T08:51:18Z</time>
      </trkpt>
      <trkpt lat="42.9164" lon="0.59844">
        <ele>1608</ele>
        <time>2018-04-19T08:51:42Z</time>
      </trkpt>
      <trkpt lat="42.9164" lon="0.59844">
        <ele>1604</ele>
        <time>2018-04-19T08:51:43Z</time>
      </trkpt>
      <trkpt lat="42.91641" lon="0.59843">
        <ele>1604</ele>
        <time>2018-04-19T08:52:30Z</time>
      </trkpt>
      <trkpt lat="42.91641" lon="0.59843">
        <ele>1601</ele>
        <time>2018-04-19T08:52:58Z</time>
      </trkpt>
      <trkpt lat="42.91642" lon="0.59843">
        <ele>1605</ele>
        <time>2018-04-19T08:52:59Z</time>
      </trkpt>
      <trkpt lat="42.91648" lon="0.59842">
        <ele>1606</ele>
        <time>2018-04-19T08:53:13Z</time>
      </trkpt>
      <trkpt lat="42.91653" lon="0.59843">
        <ele>1611</ele>
        <time>2018-04-19T08:53:27Z</time>
      </trkpt>
      <trkpt lat="42.91654" lon="0.59843">
        <ele>1606</ele>
        <time>2018-04-19T08:53:28Z</time>
      </trkpt>
      <trkpt lat="42.91654" lon="0.59843">
        <ele>1612</ele>
        <time>2018-04-19T08:53:29Z</time>
      </trkpt>
      <trkpt lat="42.91654" lon="0.59843">
        <ele>1605</ele>
        <time>2018-04-19T08:53:31Z</time>
      </trkpt>
      <trkpt lat="42.91655" lon="0.59842">
        <ele>1613</ele>
        <time>2018-04-19T08:53:32Z</time>
      </trkpt>
      <trkpt lat="42.91655" lon="0.59842">
        <ele>1606</ele>
        <time>2018-04-19T08:53:33Z</time>
      </trkpt>
      <trkpt lat="42.91656" lon="0.59841">
        <ele>1613</ele>
        <time>2018-04-19T08:53:34Z</time>
      </trkpt>
      <trkpt lat="42.91656" lon="0.59841">
        <ele>1609</ele>
        <time>2018-04-19T08:53:35Z</time>
      </trkpt>
      <trkpt lat="42.9166" lon="0.5984">
        <ele>1613</ele>
        <time>2018-04-19T08:53:48Z</time>
      </trkpt>
      <trkpt lat="42.9166" lon="0.5984">
        <ele>1610</ele>
        <time>2018-04-19T08:53:49Z</time>
      </trkpt>
      <trkpt lat="42.91661" lon="0.5984">
        <ele>1611</ele>
        <time>2018-04-19T08:53:53Z</time>
      </trkpt>
      <trkpt lat="42.91661" lon="0.5984">
        <ele>1612</ele>
        <time>2018-04-19T08:53:55Z</time>
      </trkpt>
      <trkpt lat="42.91661" lon="0.59843">
        <ele>1614</ele>
        <time>2018-04-19T08:54:16Z</time>
      </trkpt>
      <trkpt lat="42.9166" lon="0.59842">
        <ele>1610</ele>
        <time>2018-04-19T08:54:18Z</time>
      </trkpt>
      <trkpt lat="42.9166" lon="0.59841">
        <ele>1614</ele>
        <time>2018-04-19T08:54:19Z</time>
      </trkpt>
      <trkpt lat="42.91661" lon="0.59839">
        <ele>1611</ele>
        <time>2018-04-19T08:54:23Z</time>
      </trkpt>
      <trkpt lat="42.91662" lon="0.59839">
        <ele>1615</ele>
        <time>2018-04-19T08:54:26Z</time>
      </trkpt>
      <trkpt lat="42.91662" lon="0.59839">
        <ele>1611</ele>
        <time>2018-04-19T08:54:28Z</time>
      </trkpt>
      <trkpt lat="42.91663" lon="0.59839">
        <ele>1617</ele>
        <time>2018-04-19T08:54:29Z</time>
      </trkpt>
      <trkpt lat="42.91663" lon="0.59839">
        <ele>1611</ele>
        <time>2018-04-19T08:54:30Z</time>
      </trkpt>
      <trkpt lat="42.91664" lon="0.59839">
        <ele>1617</ele>
        <time>2018-04-19T08:54:31Z</time>
      </trkpt>
      <trkpt lat="42.91664" lon="0.59839">
        <ele>1613</ele>
        <time>2018-04-19T08:54:32Z</time>
      </trkpt>
      <trkpt lat="42.91666" lon="0.59838">
        <ele>1618</ele>
        <time>2018-04-19T08:54:38Z</time>
      </trkpt>
      <trkpt lat="42.91666" lon="0.59838">
        <ele>1614</ele>
        <time>2018-04-19T08:54:39Z</time>
      </trkpt>
      <trkpt lat="42.91666" lon="0.59837">
        <ele>1617</ele>
        <time>2018-04-19T08:54:40Z</time>
      </trkpt>
      <trkpt lat="42.9167" lon="0.59834">
        <ele>1618</ele>
        <time>2018-04-19T08:54:55Z</time>
      </trkpt>
      <trkpt lat="42.91672" lon="0.59832">
        <ele>1621</ele>
        <time>2018-04-19T08:55:05Z</time>
      </trkpt>
      <trkpt lat="42.91672" lon="0.59831">
        <ele>1616</ele>
        <time>2018-04-19T08:55:08Z</time>
      </trkpt>
      <trkpt lat="42.91673" lon="0.59831">
        <ele>1624</ele>
        <time>2018-04-19T08:55:09Z</time>
      </trkpt>
      <trkpt lat="42.91673" lon="0.59831">
        <ele>1617</ele>
        <time>2018-04-19T08:55:10Z</time>
      </trkpt>
      <trkpt lat="42.91674" lon="0.59831">
        <ele>1622</ele>
        <time>2018-04-19T08:55:11Z</time>
      </trkpt>
      <trkpt lat="42.91675" lon="0.59831">
        <ele>1617</ele>
        <time>2018-04-19T08:55:13Z</time>
      </trkpt>
      <trkpt lat="42.91675" lon="0.59831">
        <ele>1622</ele>
        <time>2018-04-19T08:55:14Z</time>
      </trkpt>
      <trkpt lat="42.91677" lon="0.59832">
        <ele>1618</ele>
        <time>2018-04-19T08:55:18Z</time>
      </trkpt>
      <trkpt lat="42.91677" lon="0.59832">
        <ele>1625</ele>
        <time>2018-04-19T08:55:19Z</time>
      </trkpt>
      <trkpt lat="42.91678" lon="0.59832">
        <ele>1621</ele>
        <time>2018-04-19T08:55:20Z</time>
      </trkpt>
      <trkpt lat="42.91679" lon="0.59832">
        <ele>1625</ele>
        <time>2018-04-19T08:55:22Z</time>
      </trkpt>
      <trkpt lat="42.9168" lon="0.59833">
        <ele>1619</ele>
        <time>2018-04-19T08:55:23Z</time>
      </trkpt>
      <trkpt lat="42.9168" lon="0.59833">
        <ele>1625</ele>
        <time>2018-04-19T08:55:26Z</time>
      </trkpt>
      <trkpt lat="42.91681" lon="0.59834">
        <ele>1624</ele>
        <time>2018-04-19T08:55:30Z</time>
      </trkpt>
      <trkpt lat="42.91681" lon="0.59835">
        <ele>1621</ele>
        <time>2018-04-19T08:55:32Z</time>
      </trkpt>
      <trkpt lat="42.91682" lon="0.59835">
        <ele>1624</ele>
        <time>2018-04-19T08:55:33Z</time>
      </trkpt>
      <trkpt lat="42.91682" lon="0.59836">
        <ele>1621</ele>
        <time>2018-04-19T08:55:37Z</time>
      </trkpt>
      <trkpt lat="42.91682" lon="0.59836">
        <ele>1625</ele>
        <time>2018-04-19T08:55:38Z</time>
      </trkpt>
      <trkpt lat="42.91685" lon="0.59838">
        <ele>1621</ele>
        <time>2018-04-19T08:55:45Z</time>
      </trkpt>
      <trkpt lat="42.91685" lon="0.59839">
        <ele>1628</ele>
        <time>2018-04-19T08:55:46Z</time>
      </trkpt>
      <trkpt lat="42.91685" lon="0.59839">
        <ele>1623</ele>
        <time>2018-04-19T08:55:47Z</time>
      </trkpt>
      <trkpt lat="42.91687" lon="0.59839">
        <ele>1627</ele>
        <time>2018-04-19T08:55:50Z</time>
      </trkpt>
      <trkpt lat="42.91688" lon="0.5984">
        <ele>1624</ele>
        <time>2018-04-19T08:55:54Z</time>
      </trkpt>
      <trkpt lat="42.91689" lon="0.59842">
        <ele>1628</ele>
        <time>2018-04-19T08:55:58Z</time>
      </trkpt>
      <trkpt lat="42.91692" lon="0.59842">
        <ele>1628</ele>
        <time>2018-04-19T08:56:16Z</time>
      </trkpt>
      <trkpt lat="42.91696" lon="0.59845">
        <ele>1628</ele>
        <time>2018-04-19T08:56:35Z</time>
      </trkpt>
      <trkpt lat="42.91697" lon="0.59845">
        <ele>1631</ele>
        <time>2018-04-19T08:56:40Z</time>
      </trkpt>
      <trkpt lat="42.91703" lon="0.59845">
        <ele>1631</ele>
        <time>2018-04-19T08:56:58Z</time>
      </trkpt>
      <trkpt lat="42.91706" lon="0.59845">
        <ele>1635</ele>
        <time>2018-04-19T08:57:08Z</time>
      </trkpt>
      <trkpt lat="42.91706" lon="0.59845">
        <ele>1634</ele>
        <time>2018-04-19T08:57:09Z</time>
      </trkpt>
      <trkpt lat="42.91713" lon="0.59848">
        <ele>1636</ele>
        <time>2018-04-19T08:57:25Z</time>
      </trkpt>
      <trkpt lat="42.91715" lon="0.59849">
        <ele>1636</ele>
        <time>2018-04-19T08:57:31Z</time>
      </trkpt>
      <trkpt lat="42.91716" lon="0.5985">
        <ele>1637</ele>
        <time>2018-04-19T08:57:33Z</time>
      </trkpt>
      <trkpt lat="42.91722" lon="0.59851">
        <ele>1640</ele>
        <time>2018-04-19T08:57:49Z</time>
      </trkpt>
      <trkpt lat="42.91728" lon="0.59851">
        <ele>1643</ele>
        <time>2018-04-19T08:58:06Z</time>
      </trkpt>
      <trkpt lat="42.91734" lon="0.59849">
        <ele>1644</ele>
        <time>2018-04-19T08:58:20Z</time>
      </trkpt>
      <trkpt lat="42.91737" lon="0.5985">
        <ele>1644</ele>
        <time>2018-04-19T08:58:34Z</time>
      </trkpt>
      <trkpt lat="42.91737" lon="0.59853">
        <ele>1647</ele>
        <time>2018-04-19T08:58:46Z</time>
      </trkpt>
      <trkpt lat="42.91737" lon="0.59852">
        <ele>1647</ele>
        <time>2018-04-19T08:58:47Z</time>
      </trkpt>
      <trkpt lat="42.91742" lon="0.59845">
        <ele>1648</ele>
        <time>2018-04-19T08:59:04Z</time>
      </trkpt>
      <trkpt lat="42.91751" lon="0.5984">
        <ele>1652</ele>
        <time>2018-04-19T08:59:22Z</time>
      </trkpt>
      <trkpt lat="42.91752" lon="0.59839">
        <ele>1652</ele>
        <time>2018-04-19T08:59:26Z</time>
      </trkpt>
      <trkpt lat="42.91759" lon="0.59834">
        <ele>1655</ele>
        <time>2018-04-19T08:59:42Z</time>
      </trkpt>
      <trkpt lat="42.91766" lon="0.59827">
        <ele>1656</ele>
        <time>2018-04-19T08:59:59Z</time>
      </trkpt>
      <trkpt lat="42.9177" lon="0.59822">
        <ele>1657</ele>
        <time>2018-04-19T09:00:08Z</time>
      </trkpt>
      <trkpt lat="42.91772" lon="0.59813">
        <ele>1662</ele>
        <time>2018-04-19T09:00:22Z</time>
      </trkpt>
      <trkpt lat="42.91771" lon="0.59812">
        <ele>1658</ele>
        <time>2018-04-19T09:00:23Z</time>
      </trkpt>
      <trkpt lat="42.9177" lon="0.5981">
        <ele>1661</ele>
        <time>2018-04-19T09:00:26Z</time>
      </trkpt>
      <trkpt lat="42.91769" lon="0.59812">
        <ele>1660</ele>
        <time>2018-04-19T09:00:51Z</time>
      </trkpt>
      <trkpt lat="42.91771" lon="0.59802">
        <ele>1660</ele>
        <time>2018-04-19T09:01:09Z</time>
      </trkpt>
      <trkpt lat="42.91774" lon="0.59799">
        <ele>1662</ele>
        <time>2018-04-19T09:01:14Z</time>
      </trkpt>
      <trkpt lat="42.91778" lon="0.59797">
        <ele>1661</ele>
        <time>2018-04-19T09:01:20Z</time>
      </trkpt>
      <trkpt lat="42.91783" lon="0.59795">
        <ele>1663</ele>
        <time>2018-04-19T09:01:27Z</time>
      </trkpt>
      <trkpt lat="42.91785" lon="0.59793">
        <ele>1664</ele>
        <time>2018-04-19T09:01:29Z</time>
      </trkpt>
      <trkpt lat="42.91787" lon="0.59789">
        <ele>1663</ele>
        <time>2018-04-19T09:01:34Z</time>
      </trkpt>
      <trkpt lat="42.91797" lon="0.59777">
        <ele>1667</ele>
        <time>2018-04-19T09:01:52Z</time>
      </trkpt>
      <trkpt lat="42.91802" lon="0.59768">
        <ele>1670</ele>
        <time>2018-04-19T09:02:03Z</time>
      </trkpt>
      <trkpt lat="42.91811" lon="0.59757">
        <ele>1671</ele>
        <time>2018-04-19T09:02:21Z</time>
      </trkpt>
      <trkpt lat="42.91811" lon="0.59757">
        <ele>1670</ele>
        <time>2018-04-19T09:02:22Z</time>
      </trkpt>
      <trkpt lat="42.91814" lon="0.59756">
        <ele>1671</ele>
        <time>2018-04-19T09:02:26Z</time>
      </trkpt>
      <trkpt lat="42.9182" lon="0.59751">
        <ele>1672</ele>
        <time>2018-04-19T09:02:36Z</time>
      </trkpt>
      <trkpt lat="42.91822" lon="0.59749">
        <ele>1675</ele>
        <time>2018-04-19T09:02:38Z</time>
      </trkpt>
      <trkpt lat="42.91831" lon="0.59744">
        <ele>1672</ele>
        <time>2018-04-19T09:02:53Z</time>
      </trkpt>
      <trkpt lat="42.91839" lon="0.59739">
        <ele>1676</ele>
        <time>2018-04-19T09:03:06Z</time>
      </trkpt>
      <trkpt lat="42.91843" lon="0.59734">
        <ele>1676</ele>
        <time>2018-04-19T09:03:35Z</time>
      </trkpt>
      <trkpt lat="42.91845" lon="0.59731">
        <ele>1675</ele>
        <time>2018-04-19T09:03:55Z</time>
      </trkpt>
      <trkpt lat="42.91849" lon="0.5973">
        <ele>1676</ele>
        <time>2018-04-19T09:03:59Z</time>
      </trkpt>
      <trkpt lat="42.91852" lon="0.59727">
        <ele>1677</ele>
        <time>2018-04-19T09:04:23Z</time>
      </trkpt>
      <trkpt lat="42.91853" lon="0.59728">
        <ele>1677</ele>
        <time>2018-04-19T09:04:50Z</time>
      </trkpt>
      <trkpt lat="42.91857" lon="0.5973">
        <ele>1676</ele>
        <time>2018-04-19T09:04:55Z</time>
      </trkpt>
      <trkpt lat="42.91861" lon="0.59731">
        <ele>1675</ele>
        <time>2018-04-19T09:05:01Z</time>
      </trkpt>
      <trkpt lat="42.91879" lon="0.59727">
        <ele>1673</ele>
        <time>2018-04-19T09:05:19Z</time>
      </trkpt>
    </trkseg>
  </trk>
</gpx>